<?xml version="1.0" encoding="UTF-8" standalone="no" ?>
<gpx xmlns="http://www.topografix.com/GPX/1/1" xmlns:xsi="http://www.w3.org/2001/XMLSchema-instance" xsi:schemaLocation="http://www.topografix.com/GPX/1/1 http://www.topografix.com/GPX/1/1/gpx.xsd" version="1.1" creator="VisuGPX - https://www.visugpx.com">
  <metadata>
    <name>VTT - Sortie Ctav avec Home</name>
    <desc><![CDATA[Petite sortie tranquille du mercredi aprèm au boulot.]]></desc>
  </metadata>
  <trk>
    <name><![CDATA[06-NOV-13 16:32:18]]></name>
    <trkseg>
      <trkpt lat="44.59544" lon="4.33897">
        <ele>425.04</ele>
        <time>2013-11-06T12:57:07Z</time>
      </trkpt>
      <trkpt lat="44.59543" lon="4.33899">
        <ele>428.89</ele>
        <time>2013-11-06T12:57:11Z</time>
      </trkpt>
      <trkpt lat="44.59543" lon="4.33898">
        <ele>431.77</ele>
        <time>2013-11-06T12:57:14Z</time>
      </trkpt>
      <trkpt lat="44.59543" lon="4.33898">
        <ele>435.13</ele>
        <time>2013-11-06T12:57:17Z</time>
      </trkpt>
      <trkpt lat="44.59543" lon="4.33899">
        <ele>438.5</ele>
        <time>2013-11-06T12:57:21Z</time>
      </trkpt>
      <trkpt lat="44.59544" lon="4.33899">
        <ele>438.98</ele>
        <time>2013-11-06T12:57:22Z</time>
      </trkpt>
      <trkpt lat="44.59544" lon="4.33899">
        <ele>441.86</ele>
        <time>2013-11-06T12:57:24Z</time>
      </trkpt>
      <trkpt lat="44.59544" lon="4.339">
        <ele>441.86</ele>
        <time>2013-11-06T12:57:25Z</time>
      </trkpt>
      <trkpt lat="44.59543" lon="4.33885">
        <ele>425.52</ele>
        <time>2013-11-06T13:08:12Z</time>
      </trkpt>
      <trkpt lat="44.59542" lon="4.33886">
        <ele>425.52</ele>
        <time>2013-11-06T13:08:13Z</time>
      </trkpt>
      <trkpt lat="44.59544" lon="4.33888">
        <ele>428.89</ele>
        <time>2013-11-06T13:08:23Z</time>
      </trkpt>
      <trkpt lat="44.59544" lon="4.33888">
        <ele>432.25</ele>
        <time>2013-11-06T13:08:26Z</time>
      </trkpt>
      <trkpt lat="44.59546" lon="4.33889">
        <ele>435.61</ele>
        <time>2013-11-06T13:08:29Z</time>
      </trkpt>
      <trkpt lat="44.59546" lon="4.33889">
        <ele>437.54</ele>
        <time>2013-11-06T13:08:31Z</time>
      </trkpt>
      <trkpt lat="44.59545" lon="4.33889">
        <ele>440.42</ele>
        <time>2013-11-06T13:08:35Z</time>
      </trkpt>
      <trkpt lat="44.59544" lon="4.33888">
        <ele>441.86</ele>
        <time>2013-11-06T13:08:36Z</time>
      </trkpt>
      <trkpt lat="44.59542" lon="4.33885">
        <ele>442.34</ele>
        <time>2013-11-06T13:08:38Z</time>
      </trkpt>
      <trkpt lat="44.5954" lon="4.33881">
        <ele>444.27</ele>
        <time>2013-11-06T13:08:40Z</time>
      </trkpt>
      <trkpt lat="44.59536" lon="4.3387">
        <ele>447.15</ele>
        <time>2013-11-06T13:08:45Z</time>
      </trkpt>
      <trkpt lat="44.59535" lon="4.33865">
        <ele>448.11</ele>
        <time>2013-11-06T13:08:47Z</time>
      </trkpt>
      <trkpt lat="44.59541" lon="4.33833">
        <ele>449.55</ele>
        <time>2013-11-06T13:08:58Z</time>
      </trkpt>
      <trkpt lat="44.59526" lon="4.33811">
        <ele>452.44</ele>
        <time>2013-11-06T13:09:06Z</time>
      </trkpt>
      <trkpt lat="44.59509" lon="4.33784">
        <ele>455.8</ele>
        <time>2013-11-06T13:09:14Z</time>
      </trkpt>
      <trkpt lat="44.5949" lon="4.33741">
        <ele>458.69</ele>
        <time>2013-11-06T13:09:26Z</time>
      </trkpt>
      <trkpt lat="44.59467" lon="4.33708">
        <ele>461.09</ele>
        <time>2013-11-06T13:09:37Z</time>
      </trkpt>
      <trkpt lat="44.59461" lon="4.33705">
        <ele>461.57</ele>
        <time>2013-11-06T13:09:40Z</time>
      </trkpt>
      <trkpt lat="44.59446" lon="4.3369">
        <ele>464.45</ele>
        <time>2013-11-06T13:09:48Z</time>
      </trkpt>
      <trkpt lat="44.59433" lon="4.33674">
        <ele>467.34</ele>
        <time>2013-11-06T13:10:00Z</time>
      </trkpt>
      <trkpt lat="44.59432" lon="4.33673">
        <ele>467.34</ele>
        <time>2013-11-06T13:10:01Z</time>
      </trkpt>
      <trkpt lat="44.59422" lon="4.33659">
        <ele>469.74</ele>
        <time>2013-11-06T13:10:13Z</time>
      </trkpt>
      <trkpt lat="44.5942" lon="4.33657">
        <ele>469.74</ele>
        <time>2013-11-06T13:10:15Z</time>
      </trkpt>
      <trkpt lat="44.59415" lon="4.33654">
        <ele>470.7</ele>
        <time>2013-11-06T13:10:18Z</time>
      </trkpt>
      <trkpt lat="44.594" lon="4.33633">
        <ele>472.63</ele>
        <time>2013-11-06T13:10:33Z</time>
      </trkpt>
      <trkpt lat="44.59389" lon="4.33621">
        <ele>474.07</ele>
        <time>2013-11-06T13:10:45Z</time>
      </trkpt>
      <trkpt lat="44.59378" lon="4.33604">
        <ele>475.03</ele>
        <time>2013-11-06T13:10:53Z</time>
      </trkpt>
      <trkpt lat="44.59375" lon="4.33589">
        <ele>476.47</ele>
        <time>2013-11-06T13:11:00Z</time>
      </trkpt>
      <trkpt lat="44.59352" lon="4.3358">
        <ele>477.91</ele>
        <time>2013-11-06T13:11:11Z</time>
      </trkpt>
      <trkpt lat="44.59344" lon="4.33577">
        <ele>478.39</ele>
        <time>2013-11-06T13:11:15Z</time>
      </trkpt>
      <trkpt lat="44.5934" lon="4.33575">
        <ele>478.39</ele>
        <time>2013-11-06T13:11:29Z</time>
      </trkpt>
      <trkpt lat="44.59344" lon="4.33575">
        <ele>478.87</ele>
        <time>2013-11-06T13:11:51Z</time>
      </trkpt>
      <trkpt lat="44.59344" lon="4.33575">
        <ele>479.35</ele>
        <time>2013-11-06T13:12:19Z</time>
      </trkpt>
      <trkpt lat="44.59317" lon="4.33568">
        <ele>479.84</ele>
        <time>2013-11-06T13:12:34Z</time>
      </trkpt>
      <trkpt lat="44.5929" lon="4.33564">
        <ele>481.28</ele>
        <time>2013-11-06T13:12:45Z</time>
      </trkpt>
      <trkpt lat="44.59254" lon="4.33558">
        <ele>484.16</ele>
        <time>2013-11-06T13:13:00Z</time>
      </trkpt>
      <trkpt lat="44.59242" lon="4.33556">
        <ele>484.64</ele>
        <time>2013-11-06T13:13:05Z</time>
      </trkpt>
      <trkpt lat="44.59228" lon="4.33549">
        <ele>485.12</ele>
        <time>2013-11-06T13:13:11Z</time>
      </trkpt>
      <trkpt lat="44.59194" lon="4.33535">
        <ele>486.08</ele>
        <time>2013-11-06T13:13:24Z</time>
      </trkpt>
      <trkpt lat="44.59159" lon="4.33517">
        <ele>486.56</ele>
        <time>2013-11-06T13:13:36Z</time>
      </trkpt>
      <trkpt lat="44.59131" lon="4.33507">
        <ele>486.08</ele>
        <time>2013-11-06T13:13:43Z</time>
      </trkpt>
      <trkpt lat="44.59127" lon="4.33505">
        <ele>486.08</ele>
        <time>2013-11-06T13:13:44Z</time>
      </trkpt>
      <trkpt lat="44.59117" lon="4.335">
        <ele>486.08</ele>
        <time>2013-11-06T13:13:46Z</time>
      </trkpt>
      <trkpt lat="44.59103" lon="4.33492">
        <ele>485.6</ele>
        <time>2013-11-06T13:13:49Z</time>
      </trkpt>
      <trkpt lat="44.5906" lon="4.33461">
        <ele>484.64</ele>
        <time>2013-11-06T13:14:01Z</time>
      </trkpt>
      <trkpt lat="44.59055" lon="4.33457">
        <ele>484.64</ele>
        <time>2013-11-06T13:14:02Z</time>
      </trkpt>
      <trkpt lat="44.59051" lon="4.33454">
        <ele>484.64</ele>
        <time>2013-11-06T13:14:03Z</time>
      </trkpt>
      <trkpt lat="44.59047" lon="4.33451">
        <ele>484.64</ele>
        <time>2013-11-06T13:14:04Z</time>
      </trkpt>
      <trkpt lat="44.59044" lon="4.33448">
        <ele>484.64</ele>
        <time>2013-11-06T13:14:05Z</time>
      </trkpt>
      <trkpt lat="44.59039" lon="4.33445">
        <ele>484.16</ele>
        <time>2013-11-06T13:14:06Z</time>
      </trkpt>
      <trkpt lat="44.59035" lon="4.33442">
        <ele>484.64</ele>
        <time>2013-11-06T13:14:07Z</time>
      </trkpt>
      <trkpt lat="44.59032" lon="4.33439">
        <ele>484.64</ele>
        <time>2013-11-06T13:14:08Z</time>
      </trkpt>
      <trkpt lat="44.59028" lon="4.33436">
        <ele>484.64</ele>
        <time>2013-11-06T13:14:09Z</time>
      </trkpt>
      <trkpt lat="44.59024" lon="4.33434">
        <ele>484.64</ele>
        <time>2013-11-06T13:14:10Z</time>
      </trkpt>
      <trkpt lat="44.59021" lon="4.33431">
        <ele>484.64</ele>
        <time>2013-11-06T13:14:11Z</time>
      </trkpt>
      <trkpt lat="44.59013" lon="4.33426">
        <ele>484.64</ele>
        <time>2013-11-06T13:14:13Z</time>
      </trkpt>
      <trkpt lat="44.58997" lon="4.33416">
        <ele>484.64</ele>
        <time>2013-11-06T13:14:17Z</time>
      </trkpt>
      <trkpt lat="44.58993" lon="4.33413">
        <ele>484.64</ele>
        <time>2013-11-06T13:14:18Z</time>
      </trkpt>
      <trkpt lat="44.58989" lon="4.3341">
        <ele>484.64</ele>
        <time>2013-11-06T13:14:19Z</time>
      </trkpt>
      <trkpt lat="44.58985" lon="4.33407">
        <ele>485.12</ele>
        <time>2013-11-06T13:14:20Z</time>
      </trkpt>
      <trkpt lat="44.58981" lon="4.33405">
        <ele>484.64</ele>
        <time>2013-11-06T13:14:21Z</time>
      </trkpt>
      <trkpt lat="44.58977" lon="4.33402">
        <ele>485.12</ele>
        <time>2013-11-06T13:14:22Z</time>
      </trkpt>
      <trkpt lat="44.5896" lon="4.33391">
        <ele>485.12</ele>
        <time>2013-11-06T13:14:26Z</time>
      </trkpt>
      <trkpt lat="44.58956" lon="4.33388">
        <ele>485.12</ele>
        <time>2013-11-06T13:14:27Z</time>
      </trkpt>
      <trkpt lat="44.58919" lon="4.3336">
        <ele>487.53</ele>
        <time>2013-11-06T13:14:39Z</time>
      </trkpt>
      <trkpt lat="44.58902" lon="4.33333">
        <ele>488.97</ele>
        <time>2013-11-06T13:14:47Z</time>
      </trkpt>
      <trkpt lat="44.58894" lon="4.3331">
        <ele>488.97</ele>
        <time>2013-11-06T13:14:57Z</time>
      </trkpt>
      <trkpt lat="44.58875" lon="4.33254">
        <ele>487.53</ele>
        <time>2013-11-06T13:15:09Z</time>
      </trkpt>
      <trkpt lat="44.58871" lon="4.33249">
        <ele>487.53</ele>
        <time>2013-11-06T13:15:10Z</time>
      </trkpt>
      <trkpt lat="44.58866" lon="4.33244">
        <ele>487.53</ele>
        <time>2013-11-06T13:15:11Z</time>
      </trkpt>
      <trkpt lat="44.58857" lon="4.33235">
        <ele>487.05</ele>
        <time>2013-11-06T13:15:13Z</time>
      </trkpt>
      <trkpt lat="44.58847" lon="4.33228">
        <ele>486.56</ele>
        <time>2013-11-06T13:15:15Z</time>
      </trkpt>
      <trkpt lat="44.58817" lon="4.33202">
        <ele>485.6</ele>
        <time>2013-11-06T13:15:21Z</time>
      </trkpt>
      <trkpt lat="44.58807" lon="4.33192">
        <ele>485.12</ele>
        <time>2013-11-06T13:15:23Z</time>
      </trkpt>
      <trkpt lat="44.58763" lon="4.33153">
        <ele>482.72</ele>
        <time>2013-11-06T13:15:31Z</time>
      </trkpt>
      <trkpt lat="44.58757" lon="4.3315">
        <ele>482.72</ele>
        <time>2013-11-06T13:15:32Z</time>
      </trkpt>
      <trkpt lat="44.58751" lon="4.33147">
        <ele>482.72</ele>
        <time>2013-11-06T13:15:33Z</time>
      </trkpt>
      <trkpt lat="44.58747" lon="4.33143">
        <ele>482.24</ele>
        <time>2013-11-06T13:15:34Z</time>
      </trkpt>
      <trkpt lat="44.58742" lon="4.33139">
        <ele>481.76</ele>
        <time>2013-11-06T13:15:35Z</time>
      </trkpt>
      <trkpt lat="44.58732" lon="4.33131">
        <ele>480.8</ele>
        <time>2013-11-06T13:15:37Z</time>
      </trkpt>
      <trkpt lat="44.58726" lon="4.33129">
        <ele>480.8</ele>
        <time>2013-11-06T13:15:38Z</time>
      </trkpt>
      <trkpt lat="44.58719" lon="4.33127">
        <ele>480.32</ele>
        <time>2013-11-06T13:15:39Z</time>
      </trkpt>
      <trkpt lat="44.58681" lon="4.33119">
        <ele>478.87</ele>
        <time>2013-11-06T13:15:44Z</time>
      </trkpt>
      <trkpt lat="44.58674" lon="4.33115">
        <ele>478.39</ele>
        <time>2013-11-06T13:15:45Z</time>
      </trkpt>
      <trkpt lat="44.5866" lon="4.33105">
        <ele>477.43</ele>
        <time>2013-11-06T13:15:47Z</time>
      </trkpt>
      <trkpt lat="44.58655" lon="4.331">
        <ele>476.47</ele>
        <time>2013-11-06T13:15:48Z</time>
      </trkpt>
      <trkpt lat="44.58639" lon="4.33079">
        <ele>475.03</ele>
        <time>2013-11-06T13:15:51Z</time>
      </trkpt>
      <trkpt lat="44.58634" lon="4.33073">
        <ele>474.55</ele>
        <time>2013-11-06T13:15:52Z</time>
      </trkpt>
      <trkpt lat="44.58624" lon="4.33065">
        <ele>473.59</ele>
        <time>2013-11-06T13:15:54Z</time>
      </trkpt>
      <trkpt lat="44.58615" lon="4.33059">
        <ele>472.63</ele>
        <time>2013-11-06T13:15:56Z</time>
      </trkpt>
      <trkpt lat="44.58611" lon="4.33055">
        <ele>472.14</ele>
        <time>2013-11-06T13:15:57Z</time>
      </trkpt>
      <trkpt lat="44.58607" lon="4.3305">
        <ele>472.14</ele>
        <time>2013-11-06T13:15:58Z</time>
      </trkpt>
      <trkpt lat="44.58598" lon="4.33031">
        <ele>470.7</ele>
        <time>2013-11-06T13:16:02Z</time>
      </trkpt>
      <trkpt lat="44.58595" lon="4.33013">
        <ele>469.74</ele>
        <time>2013-11-06T13:16:05Z</time>
      </trkpt>
      <trkpt lat="44.58594" lon="4.33007">
        <ele>469.74</ele>
        <time>2013-11-06T13:16:06Z</time>
      </trkpt>
      <trkpt lat="44.58592" lon="4.33001">
        <ele>469.74</ele>
        <time>2013-11-06T13:16:07Z</time>
      </trkpt>
      <trkpt lat="44.5859" lon="4.32995">
        <ele>469.26</ele>
        <time>2013-11-06T13:16:08Z</time>
      </trkpt>
      <trkpt lat="44.58587" lon="4.32989">
        <ele>468.78</ele>
        <time>2013-11-06T13:16:09Z</time>
      </trkpt>
      <trkpt lat="44.58583" lon="4.32983">
        <ele>468.78</ele>
        <time>2013-11-06T13:16:10Z</time>
      </trkpt>
      <trkpt lat="44.58574" lon="4.32966">
        <ele>467.34</ele>
        <time>2013-11-06T13:16:13Z</time>
      </trkpt>
      <trkpt lat="44.58571" lon="4.3296">
        <ele>466.86</ele>
        <time>2013-11-06T13:16:14Z</time>
      </trkpt>
      <trkpt lat="44.58568" lon="4.32955">
        <ele>466.86</ele>
        <time>2013-11-06T13:16:15Z</time>
      </trkpt>
      <trkpt lat="44.58545" lon="4.32916">
        <ele>464.45</ele>
        <time>2013-11-06T13:16:24Z</time>
      </trkpt>
      <trkpt lat="44.58541" lon="4.32912">
        <ele>463.97</ele>
        <time>2013-11-06T13:16:25Z</time>
      </trkpt>
      <trkpt lat="44.58536" lon="4.32907">
        <ele>463.49</ele>
        <time>2013-11-06T13:16:26Z</time>
      </trkpt>
      <trkpt lat="44.58531" lon="4.32903">
        <ele>463.01</ele>
        <time>2013-11-06T13:16:27Z</time>
      </trkpt>
      <trkpt lat="44.58526" lon="4.32901">
        <ele>463.01</ele>
        <time>2013-11-06T13:16:28Z</time>
      </trkpt>
      <trkpt lat="44.58521" lon="4.329">
        <ele>462.53</ele>
        <time>2013-11-06T13:16:29Z</time>
      </trkpt>
      <trkpt lat="44.58515" lon="4.32899">
        <ele>462.05</ele>
        <time>2013-11-06T13:16:30Z</time>
      </trkpt>
      <trkpt lat="44.58484" lon="4.32898">
        <ele>460.13</ele>
        <time>2013-11-06T13:16:36Z</time>
      </trkpt>
      <trkpt lat="44.58479" lon="4.32897">
        <ele>459.65</ele>
        <time>2013-11-06T13:16:37Z</time>
      </trkpt>
      <trkpt lat="44.58475" lon="4.32894">
        <ele>459.65</ele>
        <time>2013-11-06T13:16:38Z</time>
      </trkpt>
      <trkpt lat="44.58471" lon="4.32891">
        <ele>459.17</ele>
        <time>2013-11-06T13:16:39Z</time>
      </trkpt>
      <trkpt lat="44.58467" lon="4.32887">
        <ele>459.17</ele>
        <time>2013-11-06T13:16:40Z</time>
      </trkpt>
      <trkpt lat="44.58463" lon="4.32885">
        <ele>459.17</ele>
        <time>2013-11-06T13:16:41Z</time>
      </trkpt>
      <trkpt lat="44.58444" lon="4.3287">
        <ele>457.24</ele>
        <time>2013-11-06T13:16:46Z</time>
      </trkpt>
      <trkpt lat="44.5844" lon="4.32866">
        <ele>457.24</ele>
        <time>2013-11-06T13:16:47Z</time>
      </trkpt>
      <trkpt lat="44.58435" lon="4.32863">
        <ele>456.76</ele>
        <time>2013-11-06T13:16:48Z</time>
      </trkpt>
      <trkpt lat="44.58431" lon="4.32861">
        <ele>456.28</ele>
        <time>2013-11-06T13:16:49Z</time>
      </trkpt>
      <trkpt lat="44.58425" lon="4.3286">
        <ele>456.28</ele>
        <time>2013-11-06T13:16:50Z</time>
      </trkpt>
      <trkpt lat="44.58401" lon="4.32857">
        <ele>454.84</ele>
        <time>2013-11-06T13:16:54Z</time>
      </trkpt>
      <trkpt lat="44.58395" lon="4.32857">
        <ele>454.84</ele>
        <time>2013-11-06T13:16:55Z</time>
      </trkpt>
      <trkpt lat="44.58375" lon="4.32857">
        <ele>453.88</ele>
        <time>2013-11-06T13:16:58Z</time>
      </trkpt>
      <trkpt lat="44.58338" lon="4.32849">
        <ele>450.52</ele>
        <time>2013-11-06T13:17:05Z</time>
      </trkpt>
      <trkpt lat="44.583" lon="4.3285">
        <ele>449.07</ele>
        <time>2013-11-06T13:17:18Z</time>
      </trkpt>
      <trkpt lat="44.5828" lon="4.32861">
        <ele>447.15</ele>
        <time>2013-11-06T13:17:28Z</time>
      </trkpt>
      <trkpt lat="44.58281" lon="4.3286">
        <ele>446.67</ele>
        <time>2013-11-06T13:17:47Z</time>
      </trkpt>
      <trkpt lat="44.58281" lon="4.3286">
        <ele>446.67</ele>
        <time>2013-11-06T13:18:09Z</time>
      </trkpt>
      <trkpt lat="44.58281" lon="4.32861">
        <ele>446.67</ele>
        <time>2013-11-06T13:18:40Z</time>
      </trkpt>
      <trkpt lat="44.58281" lon="4.3286">
        <ele>446.67</ele>
        <time>2013-11-06T13:19:07Z</time>
      </trkpt>
      <trkpt lat="44.58282" lon="4.3286">
        <ele>447.63</ele>
        <time>2013-11-06T13:19:23Z</time>
      </trkpt>
      <trkpt lat="44.58283" lon="4.32859">
        <ele>447.15</ele>
        <time>2013-11-06T13:19:24Z</time>
      </trkpt>
      <trkpt lat="44.58284" lon="4.32858">
        <ele>447.15</ele>
        <time>2013-11-06T13:19:25Z</time>
      </trkpt>
      <trkpt lat="44.58284" lon="4.32856">
        <ele>447.63</ele>
        <time>2013-11-06T13:19:26Z</time>
      </trkpt>
      <trkpt lat="44.58286" lon="4.32854">
        <ele>446.67</ele>
        <time>2013-11-06T13:19:27Z</time>
      </trkpt>
      <trkpt lat="44.58287" lon="4.32851">
        <ele>447.15</ele>
        <time>2013-11-06T13:19:28Z</time>
      </trkpt>
      <trkpt lat="44.58289" lon="4.32848">
        <ele>447.15</ele>
        <time>2013-11-06T13:19:29Z</time>
      </trkpt>
      <trkpt lat="44.58292" lon="4.32845">
        <ele>447.15</ele>
        <time>2013-11-06T13:19:30Z</time>
      </trkpt>
      <trkpt lat="44.58305" lon="4.32828">
        <ele>445.23</ele>
        <time>2013-11-06T13:19:39Z</time>
      </trkpt>
      <trkpt lat="44.58335" lon="4.32802">
        <ele>443.31</ele>
        <time>2013-11-06T13:19:54Z</time>
      </trkpt>
      <trkpt lat="44.58339" lon="4.32801">
        <ele>442.82</ele>
        <time>2013-11-06T13:19:55Z</time>
      </trkpt>
      <trkpt lat="44.58376" lon="4.32795">
        <ele>439.46</ele>
        <time>2013-11-06T13:20:04Z</time>
      </trkpt>
      <trkpt lat="44.58384" lon="4.32786">
        <ele>438.02</ele>
        <time>2013-11-06T13:20:08Z</time>
      </trkpt>
      <trkpt lat="44.58358" lon="4.3278">
        <ele>436.58</ele>
        <time>2013-11-06T13:20:15Z</time>
      </trkpt>
      <trkpt lat="44.58331" lon="4.32767">
        <ele>435.13</ele>
        <time>2013-11-06T13:20:19Z</time>
      </trkpt>
      <trkpt lat="44.58323" lon="4.32766">
        <ele>434.65</ele>
        <time>2013-11-06T13:20:20Z</time>
      </trkpt>
      <trkpt lat="44.58316" lon="4.32765">
        <ele>434.17</ele>
        <time>2013-11-06T13:20:21Z</time>
      </trkpt>
      <trkpt lat="44.58287" lon="4.32777">
        <ele>431.77</ele>
        <time>2013-11-06T13:20:28Z</time>
      </trkpt>
      <trkpt lat="44.58275" lon="4.32799">
        <ele>429.85</ele>
        <time>2013-11-06T13:20:35Z</time>
      </trkpt>
      <trkpt lat="44.58236" lon="4.32815">
        <ele>427.44</ele>
        <time>2013-11-06T13:20:46Z</time>
      </trkpt>
      <trkpt lat="44.58221" lon="4.3282">
        <ele>426.96</ele>
        <time>2013-11-06T13:20:49Z</time>
      </trkpt>
      <trkpt lat="44.58187" lon="4.32844">
        <ele>425.04</ele>
        <time>2013-11-06T13:20:56Z</time>
      </trkpt>
      <trkpt lat="44.58182" lon="4.32849">
        <ele>425.04</ele>
        <time>2013-11-06T13:20:57Z</time>
      </trkpt>
      <trkpt lat="44.58176" lon="4.32854">
        <ele>424.56</ele>
        <time>2013-11-06T13:20:58Z</time>
      </trkpt>
      <trkpt lat="44.58166" lon="4.32865">
        <ele>423.12</ele>
        <time>2013-11-06T13:21:00Z</time>
      </trkpt>
      <trkpt lat="44.58162" lon="4.32868">
        <ele>422.64</ele>
        <time>2013-11-06T13:21:01Z</time>
      </trkpt>
      <trkpt lat="44.58157" lon="4.3287">
        <ele>422.16</ele>
        <time>2013-11-06T13:21:02Z</time>
      </trkpt>
      <trkpt lat="44.58153" lon="4.3287">
        <ele>421.68</ele>
        <time>2013-11-06T13:21:03Z</time>
      </trkpt>
      <trkpt lat="44.5815" lon="4.32867">
        <ele>421.19</ele>
        <time>2013-11-06T13:21:04Z</time>
      </trkpt>
      <trkpt lat="44.58148" lon="4.32863">
        <ele>421.19</ele>
        <time>2013-11-06T13:21:05Z</time>
      </trkpt>
      <trkpt lat="44.58147" lon="4.32859">
        <ele>420.23</ele>
        <time>2013-11-06T13:21:06Z</time>
      </trkpt>
      <trkpt lat="44.58145" lon="4.32854">
        <ele>419.75</ele>
        <time>2013-11-06T13:21:07Z</time>
      </trkpt>
      <trkpt lat="44.58144" lon="4.32848">
        <ele>419.75</ele>
        <time>2013-11-06T13:21:08Z</time>
      </trkpt>
      <trkpt lat="44.58131" lon="4.32807">
        <ele>417.35</ele>
        <time>2013-11-06T13:21:13Z</time>
      </trkpt>
      <trkpt lat="44.58126" lon="4.328">
        <ele>416.39</ele>
        <time>2013-11-06T13:21:14Z</time>
      </trkpt>
      <trkpt lat="44.58122" lon="4.32794">
        <ele>415.91</ele>
        <time>2013-11-06T13:21:15Z</time>
      </trkpt>
      <trkpt lat="44.58116" lon="4.32788">
        <ele>415.43</ele>
        <time>2013-11-06T13:21:16Z</time>
      </trkpt>
      <trkpt lat="44.5811" lon="4.32783">
        <ele>414.95</ele>
        <time>2013-11-06T13:21:17Z</time>
      </trkpt>
      <trkpt lat="44.58104" lon="4.32777">
        <ele>414.47</ele>
        <time>2013-11-06T13:21:18Z</time>
      </trkpt>
      <trkpt lat="44.58097" lon="4.32773">
        <ele>413.98</ele>
        <time>2013-11-06T13:21:19Z</time>
      </trkpt>
      <trkpt lat="44.58065" lon="4.32757">
        <ele>411.58</ele>
        <time>2013-11-06T13:21:27Z</time>
      </trkpt>
      <trkpt lat="44.58065" lon="4.32755">
        <ele>411.1</ele>
        <time>2013-11-06T13:21:29Z</time>
      </trkpt>
      <trkpt lat="44.58066" lon="4.32753">
        <ele>410.62</ele>
        <time>2013-11-06T13:21:30Z</time>
      </trkpt>
      <trkpt lat="44.58067" lon="4.32752">
        <ele>409.66</ele>
        <time>2013-11-06T13:21:31Z</time>
      </trkpt>
      <trkpt lat="44.58069" lon="4.32751">
        <ele>409.66</ele>
        <time>2013-11-06T13:21:32Z</time>
      </trkpt>
      <trkpt lat="44.58087" lon="4.32739">
        <ele>406.29</ele>
        <time>2013-11-06T13:21:39Z</time>
      </trkpt>
      <trkpt lat="44.58091" lon="4.32739">
        <ele>406.29</ele>
        <time>2013-11-06T13:21:40Z</time>
      </trkpt>
      <trkpt lat="44.58122" lon="4.32769">
        <ele>405.33</ele>
        <time>2013-11-06T13:21:50Z</time>
      </trkpt>
      <trkpt lat="44.58138" lon="4.32798">
        <ele>407.26</ele>
        <time>2013-11-06T13:22:01Z</time>
      </trkpt>
      <trkpt lat="44.58162" lon="4.32812">
        <ele>407.74</ele>
        <time>2013-11-06T13:22:14Z</time>
      </trkpt>
      <trkpt lat="44.58197" lon="4.32778">
        <ele>407.74</ele>
        <time>2013-11-06T13:22:26Z</time>
      </trkpt>
      <trkpt lat="44.58228" lon="4.32733">
        <ele>409.18</ele>
        <time>2013-11-06T13:22:40Z</time>
      </trkpt>
      <trkpt lat="44.58267" lon="4.32696">
        <ele>408.7</ele>
        <time>2013-11-06T13:22:53Z</time>
      </trkpt>
      <trkpt lat="44.58304" lon="4.32681">
        <ele>407.74</ele>
        <time>2013-11-06T13:23:05Z</time>
      </trkpt>
      <trkpt lat="44.58341" lon="4.32686">
        <ele>407.74</ele>
        <time>2013-11-06T13:23:18Z</time>
      </trkpt>
      <trkpt lat="44.58382" lon="4.32681">
        <ele>407.26</ele>
        <time>2013-11-06T13:23:32Z</time>
      </trkpt>
      <trkpt lat="44.58435" lon="4.32664">
        <ele>407.74</ele>
        <time>2013-11-06T13:23:48Z</time>
      </trkpt>
      <trkpt lat="44.58504" lon="4.32643">
        <ele>404.37</ele>
        <time>2013-11-06T13:24:04Z</time>
      </trkpt>
      <trkpt lat="44.5853" lon="4.32635">
        <ele>401.01</ele>
        <time>2013-11-06T13:24:14Z</time>
      </trkpt>
      <trkpt lat="44.58548" lon="4.32633">
        <ele>399.57</ele>
        <time>2013-11-06T13:24:22Z</time>
      </trkpt>
      <trkpt lat="44.58572" lon="4.32614">
        <ele>397.16</ele>
        <time>2013-11-06T13:24:34Z</time>
      </trkpt>
      <trkpt lat="44.58595" lon="4.32598">
        <ele>394.76</ele>
        <time>2013-11-06T13:24:47Z</time>
      </trkpt>
      <trkpt lat="44.58602" lon="4.32594">
        <ele>394.28</ele>
        <time>2013-11-06T13:25:03Z</time>
      </trkpt>
      <trkpt lat="44.58602" lon="4.32593">
        <ele>394.76</ele>
        <time>2013-11-06T13:25:31Z</time>
      </trkpt>
      <trkpt lat="44.58623" lon="4.3259">
        <ele>393.8</ele>
        <time>2013-11-06T13:25:47Z</time>
      </trkpt>
      <trkpt lat="44.58629" lon="4.3259">
        <ele>393.32</ele>
        <time>2013-11-06T13:25:50Z</time>
      </trkpt>
      <trkpt lat="44.58631" lon="4.3259">
        <ele>392.84</ele>
        <time>2013-11-06T13:25:51Z</time>
      </trkpt>
      <trkpt lat="44.58634" lon="4.32591">
        <ele>392.84</ele>
        <time>2013-11-06T13:25:52Z</time>
      </trkpt>
      <trkpt lat="44.58672" lon="4.32594">
        <ele>390.43</ele>
        <time>2013-11-06T13:26:04Z</time>
      </trkpt>
      <trkpt lat="44.58697" lon="4.32608">
        <ele>391.87</ele>
        <time>2013-11-06T13:26:15Z</time>
      </trkpt>
      <trkpt lat="44.58719" lon="4.32637">
        <ele>393.8</ele>
        <time>2013-11-06T13:26:29Z</time>
      </trkpt>
      <trkpt lat="44.58724" lon="4.32645">
        <ele>394.28</ele>
        <time>2013-11-06T13:26:32Z</time>
      </trkpt>
      <trkpt lat="44.58725" lon="4.32648">
        <ele>394.76</ele>
        <time>2013-11-06T13:26:33Z</time>
      </trkpt>
      <trkpt lat="44.58745" lon="4.32672">
        <ele>396.2</ele>
        <time>2013-11-06T13:26:43Z</time>
      </trkpt>
      <trkpt lat="44.58745" lon="4.32675">
        <ele>396.2</ele>
        <time>2013-11-06T13:26:44Z</time>
      </trkpt>
      <trkpt lat="44.58745" lon="4.32678">
        <ele>396.2</ele>
        <time>2013-11-06T13:26:45Z</time>
      </trkpt>
      <trkpt lat="44.58746" lon="4.32692">
        <ele>396.68</ele>
        <time>2013-11-06T13:26:50Z</time>
      </trkpt>
      <trkpt lat="44.58746" lon="4.32694">
        <ele>397.16</ele>
        <time>2013-11-06T13:26:51Z</time>
      </trkpt>
      <trkpt lat="44.58752" lon="4.32725">
        <ele>399.08</ele>
        <time>2013-11-06T13:27:04Z</time>
      </trkpt>
      <trkpt lat="44.58767" lon="4.32741">
        <ele>399.57</ele>
        <time>2013-11-06T13:27:13Z</time>
      </trkpt>
      <trkpt lat="44.58787" lon="4.3276">
        <ele>400.05</ele>
        <time>2013-11-06T13:27:25Z</time>
      </trkpt>
      <trkpt lat="44.58788" lon="4.3276">
        <ele>400.53</ele>
        <time>2013-11-06T13:27:43Z</time>
      </trkpt>
      <trkpt lat="44.58788" lon="4.32761">
        <ele>400.53</ele>
        <time>2013-11-06T13:28:17Z</time>
      </trkpt>
      <trkpt lat="44.58788" lon="4.32761">
        <ele>400.53</ele>
        <time>2013-11-06T13:28:46Z</time>
      </trkpt>
      <trkpt lat="44.58788" lon="4.32762">
        <ele>400.53</ele>
        <time>2013-11-06T13:29:09Z</time>
      </trkpt>
      <trkpt lat="44.58788" lon="4.32762">
        <ele>400.53</ele>
        <time>2013-11-06T13:29:34Z</time>
      </trkpt>
      <trkpt lat="44.58788" lon="4.32762">
        <ele>401.01</ele>
        <time>2013-11-06T13:30:03Z</time>
      </trkpt>
      <trkpt lat="44.58788" lon="4.32762">
        <ele>401.01</ele>
        <time>2013-11-06T13:30:29Z</time>
      </trkpt>
      <trkpt lat="44.58788" lon="4.32763">
        <ele>401.01</ele>
        <time>2013-11-06T13:30:50Z</time>
      </trkpt>
      <trkpt lat="44.58788" lon="4.32763">
        <ele>401.01</ele>
        <time>2013-11-06T13:31:08Z</time>
      </trkpt>
      <trkpt lat="44.58788" lon="4.32763">
        <ele>401.49</ele>
        <time>2013-11-06T13:31:19Z</time>
      </trkpt>
      <trkpt lat="44.58804" lon="4.32785">
        <ele>402.93</ele>
        <time>2013-11-06T13:31:29Z</time>
      </trkpt>
      <trkpt lat="44.58825" lon="4.32806">
        <ele>405.33</ele>
        <time>2013-11-06T13:31:41Z</time>
      </trkpt>
      <trkpt lat="44.58831" lon="4.32811">
        <ele>406.29</ele>
        <time>2013-11-06T13:31:45Z</time>
      </trkpt>
      <trkpt lat="44.58862" lon="4.32834">
        <ele>408.7</ele>
        <time>2013-11-06T13:32:01Z</time>
      </trkpt>
      <trkpt lat="44.58883" lon="4.32852">
        <ele>410.62</ele>
        <time>2013-11-06T13:32:17Z</time>
      </trkpt>
      <trkpt lat="44.58906" lon="4.32866">
        <ele>413.02</ele>
        <time>2013-11-06T13:32:33Z</time>
      </trkpt>
      <trkpt lat="44.58922" lon="4.32873">
        <ele>414.47</ele>
        <time>2013-11-06T13:32:47Z</time>
      </trkpt>
      <trkpt lat="44.5893" lon="4.32879">
        <ele>415.43</ele>
        <time>2013-11-06T13:32:54Z</time>
      </trkpt>
      <trkpt lat="44.58948" lon="4.329">
        <ele>417.83</ele>
        <time>2013-11-06T13:33:06Z</time>
      </trkpt>
      <trkpt lat="44.58967" lon="4.32934">
        <ele>419.75</ele>
        <time>2013-11-06T13:33:19Z</time>
      </trkpt>
      <trkpt lat="44.58984" lon="4.32968">
        <ele>420.23</ele>
        <time>2013-11-06T13:33:30Z</time>
      </trkpt>
      <trkpt lat="44.58998" lon="4.32994">
        <ele>419.27</ele>
        <time>2013-11-06T13:33:36Z</time>
      </trkpt>
      <trkpt lat="44.59001" lon="4.32998">
        <ele>419.27</ele>
        <time>2013-11-06T13:33:37Z</time>
      </trkpt>
      <trkpt lat="44.59004" lon="4.33003">
        <ele>419.27</ele>
        <time>2013-11-06T13:33:38Z</time>
      </trkpt>
      <trkpt lat="44.59007" lon="4.33007">
        <ele>419.27</ele>
        <time>2013-11-06T13:33:39Z</time>
      </trkpt>
      <trkpt lat="44.59009" lon="4.33011">
        <ele>419.27</ele>
        <time>2013-11-06T13:33:40Z</time>
      </trkpt>
      <trkpt lat="44.59012" lon="4.33016">
        <ele>419.27</ele>
        <time>2013-11-06T13:33:41Z</time>
      </trkpt>
      <trkpt lat="44.59015" lon="4.3302">
        <ele>419.75</ele>
        <time>2013-11-06T13:33:42Z</time>
      </trkpt>
      <trkpt lat="44.59017" lon="4.33022">
        <ele>419.75</ele>
        <time>2013-11-06T13:33:43Z</time>
      </trkpt>
      <trkpt lat="44.5902" lon="4.33024">
        <ele>420.23</ele>
        <time>2013-11-06T13:33:44Z</time>
      </trkpt>
      <trkpt lat="44.59021" lon="4.33026">
        <ele>420.23</ele>
        <time>2013-11-06T13:33:45Z</time>
      </trkpt>
      <trkpt lat="44.59046" lon="4.33057">
        <ele>421.68</ele>
        <time>2013-11-06T13:33:58Z</time>
      </trkpt>
      <trkpt lat="44.5908" lon="4.33086">
        <ele>421.68</ele>
        <time>2013-11-06T13:34:08Z</time>
      </trkpt>
      <trkpt lat="44.59124" lon="4.33125">
        <ele>420.71</ele>
        <time>2013-11-06T13:34:21Z</time>
      </trkpt>
      <trkpt lat="44.5916" lon="4.33147">
        <ele>419.75</ele>
        <time>2013-11-06T13:34:32Z</time>
      </trkpt>
      <trkpt lat="44.59187" lon="4.33165">
        <ele>418.31</ele>
        <time>2013-11-06T13:34:40Z</time>
      </trkpt>
      <trkpt lat="44.59191" lon="4.33163">
        <ele>418.31</ele>
        <time>2013-11-06T13:34:41Z</time>
      </trkpt>
      <trkpt lat="44.59194" lon="4.33158">
        <ele>418.31</ele>
        <time>2013-11-06T13:34:42Z</time>
      </trkpt>
      <trkpt lat="44.59195" lon="4.33153">
        <ele>418.31</ele>
        <time>2013-11-06T13:34:43Z</time>
      </trkpt>
      <trkpt lat="44.59195" lon="4.33146">
        <ele>417.83</ele>
        <time>2013-11-06T13:34:44Z</time>
      </trkpt>
      <trkpt lat="44.59195" lon="4.331">
        <ele>418.31</ele>
        <time>2013-11-06T13:34:55Z</time>
      </trkpt>
      <trkpt lat="44.592" lon="4.3307">
        <ele>417.35</ele>
        <time>2013-11-06T13:35:05Z</time>
      </trkpt>
      <trkpt lat="44.59213" lon="4.32993">
        <ele>417.83</ele>
        <time>2013-11-06T13:35:19Z</time>
      </trkpt>
      <trkpt lat="44.59219" lon="4.32932">
        <ele>417.83</ele>
        <time>2013-11-06T13:35:31Z</time>
      </trkpt>
      <trkpt lat="44.59239" lon="4.32874">
        <ele>418.31</ele>
        <time>2013-11-06T13:35:42Z</time>
      </trkpt>
      <trkpt lat="44.59264" lon="4.32849">
        <ele>419.75</ele>
        <time>2013-11-06T13:35:53Z</time>
      </trkpt>
      <trkpt lat="44.59297" lon="4.32823">
        <ele>423.12</ele>
        <time>2013-11-06T13:36:08Z</time>
      </trkpt>
      <trkpt lat="44.59317" lon="4.32797">
        <ele>425.04</ele>
        <time>2013-11-06T13:36:22Z</time>
      </trkpt>
      <trkpt lat="44.59336" lon="4.32782">
        <ele>427.92</ele>
        <time>2013-11-06T13:36:35Z</time>
      </trkpt>
      <trkpt lat="44.59337" lon="4.3278">
        <ele>427.92</ele>
        <time>2013-11-06T13:36:36Z</time>
      </trkpt>
      <trkpt lat="44.59351" lon="4.32752">
        <ele>427.44</ele>
        <time>2013-11-06T13:36:49Z</time>
      </trkpt>
      <trkpt lat="44.59358" lon="4.32747">
        <ele>427.92</ele>
        <time>2013-11-06T13:36:54Z</time>
      </trkpt>
      <trkpt lat="44.59361" lon="4.3274">
        <ele>428.4</ele>
        <time>2013-11-06T13:37:01Z</time>
      </trkpt>
      <trkpt lat="44.59361" lon="4.32741">
        <ele>427.92</ele>
        <time>2013-11-06T13:37:02Z</time>
      </trkpt>
      <trkpt lat="44.5936" lon="4.32743">
        <ele>427.92</ele>
        <time>2013-11-06T13:37:03Z</time>
      </trkpt>
      <trkpt lat="44.59359" lon="4.32744">
        <ele>427.92</ele>
        <time>2013-11-06T13:37:04Z</time>
      </trkpt>
      <trkpt lat="44.59358" lon="4.32745">
        <ele>427.92</ele>
        <time>2013-11-06T13:37:05Z</time>
      </trkpt>
      <trkpt lat="44.59356" lon="4.32745">
        <ele>427.44</ele>
        <time>2013-11-06T13:37:20Z</time>
      </trkpt>
      <trkpt lat="44.59356" lon="4.32745">
        <ele>426.96</ele>
        <time>2013-11-06T13:37:39Z</time>
      </trkpt>
      <trkpt lat="44.59356" lon="4.32745">
        <ele>426.96</ele>
        <time>2013-11-06T13:38:13Z</time>
      </trkpt>
      <trkpt lat="44.59356" lon="4.32745">
        <ele>426.96</ele>
        <time>2013-11-06T13:38:42Z</time>
      </trkpt>
      <trkpt lat="44.59356" lon="4.32745">
        <ele>426.48</ele>
        <time>2013-11-06T13:39:11Z</time>
      </trkpt>
      <trkpt lat="44.59357" lon="4.32745">
        <ele>426.48</ele>
        <time>2013-11-06T13:39:42Z</time>
      </trkpt>
      <trkpt lat="44.59358" lon="4.32742">
        <ele>426</ele>
        <time>2013-11-06T13:40:06Z</time>
      </trkpt>
      <trkpt lat="44.59359" lon="4.32742">
        <ele>426</ele>
        <time>2013-11-06T13:40:07Z</time>
      </trkpt>
      <trkpt lat="44.59361" lon="4.32742">
        <ele>426.96</ele>
        <time>2013-11-06T13:40:08Z</time>
      </trkpt>
      <trkpt lat="44.59378" lon="4.32727">
        <ele>427.44</ele>
        <time>2013-11-06T13:40:17Z</time>
      </trkpt>
      <trkpt lat="44.59404" lon="4.32694">
        <ele>428.89</ele>
        <time>2013-11-06T13:40:30Z</time>
      </trkpt>
      <trkpt lat="44.59407" lon="4.32695">
        <ele>428.89</ele>
        <time>2013-11-06T13:40:31Z</time>
      </trkpt>
      <trkpt lat="44.59409" lon="4.32697">
        <ele>429.37</ele>
        <time>2013-11-06T13:40:32Z</time>
      </trkpt>
      <trkpt lat="44.59411" lon="4.327">
        <ele>429.85</ele>
        <time>2013-11-06T13:40:33Z</time>
      </trkpt>
      <trkpt lat="44.59414" lon="4.32704">
        <ele>429.85</ele>
        <time>2013-11-06T13:40:34Z</time>
      </trkpt>
      <trkpt lat="44.59416" lon="4.32707">
        <ele>430.33</ele>
        <time>2013-11-06T13:40:35Z</time>
      </trkpt>
      <trkpt lat="44.59419" lon="4.3271">
        <ele>430.33</ele>
        <time>2013-11-06T13:40:36Z</time>
      </trkpt>
      <trkpt lat="44.59422" lon="4.32714">
        <ele>430.81</ele>
        <time>2013-11-06T13:40:37Z</time>
      </trkpt>
      <trkpt lat="44.59451" lon="4.32745">
        <ele>432.73</ele>
        <time>2013-11-06T13:40:48Z</time>
      </trkpt>
      <trkpt lat="44.59501" lon="4.32782">
        <ele>433.69</ele>
        <time>2013-11-06T13:41:03Z</time>
      </trkpt>
      <trkpt lat="44.59533" lon="4.32808">
        <ele>435.61</ele>
        <time>2013-11-06T13:41:14Z</time>
      </trkpt>
      <trkpt lat="44.59564" lon="4.32833">
        <ele>435.61</ele>
        <time>2013-11-06T13:41:25Z</time>
      </trkpt>
      <trkpt lat="44.59609" lon="4.32854">
        <ele>434.65</ele>
        <time>2013-11-06T13:41:37Z</time>
      </trkpt>
      <trkpt lat="44.59647" lon="4.329">
        <ele>434.17</ele>
        <time>2013-11-06T13:41:49Z</time>
      </trkpt>
      <trkpt lat="44.59665" lon="4.32927">
        <ele>433.69</ele>
        <time>2013-11-06T13:42:00Z</time>
      </trkpt>
      <trkpt lat="44.59668" lon="4.32932">
        <ele>433.69</ele>
        <time>2013-11-06T13:42:03Z</time>
      </trkpt>
      <trkpt lat="44.59671" lon="4.32934">
        <ele>433.69</ele>
        <time>2013-11-06T13:42:04Z</time>
      </trkpt>
      <trkpt lat="44.59697" lon="4.32946">
        <ele>431.29</ele>
        <time>2013-11-06T13:42:12Z</time>
      </trkpt>
      <trkpt lat="44.59704" lon="4.32947">
        <ele>430.33</ele>
        <time>2013-11-06T13:42:14Z</time>
      </trkpt>
      <trkpt lat="44.59711" lon="4.32947">
        <ele>429.37</ele>
        <time>2013-11-06T13:42:16Z</time>
      </trkpt>
      <trkpt lat="44.59739" lon="4.32967">
        <ele>426.96</ele>
        <time>2013-11-06T13:42:28Z</time>
      </trkpt>
      <trkpt lat="44.59765" lon="4.32998">
        <ele>426</ele>
        <time>2013-11-06T13:42:41Z</time>
      </trkpt>
      <trkpt lat="44.59801" lon="4.33008">
        <ele>426.96</ele>
        <time>2013-11-06T13:42:51Z</time>
      </trkpt>
      <trkpt lat="44.59805" lon="4.3301">
        <ele>426.96</ele>
        <time>2013-11-06T13:42:52Z</time>
      </trkpt>
      <trkpt lat="44.59811" lon="4.33013">
        <ele>426.48</ele>
        <time>2013-11-06T13:42:53Z</time>
      </trkpt>
      <trkpt lat="44.59816" lon="4.33017">
        <ele>426.48</ele>
        <time>2013-11-06T13:42:54Z</time>
      </trkpt>
      <trkpt lat="44.59821" lon="4.33021">
        <ele>426.48</ele>
        <time>2013-11-06T13:42:55Z</time>
      </trkpt>
      <trkpt lat="44.59832" lon="4.33028">
        <ele>426.48</ele>
        <time>2013-11-06T13:42:57Z</time>
      </trkpt>
      <trkpt lat="44.59837" lon="4.3303">
        <ele>426.48</ele>
        <time>2013-11-06T13:42:58Z</time>
      </trkpt>
      <trkpt lat="44.59889" lon="4.33072">
        <ele>426.96</ele>
        <time>2013-11-06T13:43:09Z</time>
      </trkpt>
      <trkpt lat="44.59921" lon="4.3313">
        <ele>425.04</ele>
        <time>2013-11-06T13:43:24Z</time>
      </trkpt>
      <trkpt lat="44.59944" lon="4.33159">
        <ele>424.08</ele>
        <time>2013-11-06T13:43:34Z</time>
      </trkpt>
      <trkpt lat="44.59954" lon="4.33164">
        <ele>423.6</ele>
        <time>2013-11-06T13:43:37Z</time>
      </trkpt>
      <trkpt lat="44.59995" lon="4.33211">
        <ele>420.71</ele>
        <time>2013-11-06T13:43:48Z</time>
      </trkpt>
      <trkpt lat="44.60045" lon="4.33233">
        <ele>418.79</ele>
        <time>2013-11-06T13:43:59Z</time>
      </trkpt>
      <trkpt lat="44.6005" lon="4.33232">
        <ele>418.31</ele>
        <time>2013-11-06T13:44:00Z</time>
      </trkpt>
      <trkpt lat="44.60112" lon="4.3321">
        <ele>416.87</ele>
        <time>2013-11-06T13:44:13Z</time>
      </trkpt>
      <trkpt lat="44.60133" lon="4.33206">
        <ele>415.91</ele>
        <time>2013-11-06T13:44:23Z</time>
      </trkpt>
      <trkpt lat="44.60133" lon="4.33206">
        <ele>415.91</ele>
        <time>2013-11-06T13:44:51Z</time>
      </trkpt>
      <trkpt lat="44.60134" lon="4.33206">
        <ele>416.39</ele>
        <time>2013-11-06T13:45:15Z</time>
      </trkpt>
      <trkpt lat="44.60137" lon="4.33207">
        <ele>415.91</ele>
        <time>2013-11-06T13:45:16Z</time>
      </trkpt>
      <trkpt lat="44.60154" lon="4.33209">
        <ele>415.91</ele>
        <time>2013-11-06T13:45:25Z</time>
      </trkpt>
      <trkpt lat="44.60156" lon="4.33209">
        <ele>415.91</ele>
        <time>2013-11-06T13:45:26Z</time>
      </trkpt>
      <trkpt lat="44.60158" lon="4.33208">
        <ele>415.91</ele>
        <time>2013-11-06T13:45:27Z</time>
      </trkpt>
      <trkpt lat="44.60177" lon="4.33221">
        <ele>416.39</ele>
        <time>2013-11-06T13:45:36Z</time>
      </trkpt>
      <trkpt lat="44.6018" lon="4.33222">
        <ele>416.39</ele>
        <time>2013-11-06T13:45:37Z</time>
      </trkpt>
      <trkpt lat="44.60183" lon="4.33223">
        <ele>416.39</ele>
        <time>2013-11-06T13:45:38Z</time>
      </trkpt>
      <trkpt lat="44.60185" lon="4.33223">
        <ele>416.39</ele>
        <time>2013-11-06T13:45:39Z</time>
      </trkpt>
      <trkpt lat="44.60188" lon="4.33223">
        <ele>416.87</ele>
        <time>2013-11-06T13:45:40Z</time>
      </trkpt>
      <trkpt lat="44.6019" lon="4.33222">
        <ele>416.87</ele>
        <time>2013-11-06T13:45:41Z</time>
      </trkpt>
      <trkpt lat="44.60193" lon="4.33221">
        <ele>416.87</ele>
        <time>2013-11-06T13:45:42Z</time>
      </trkpt>
      <trkpt lat="44.60214" lon="4.33199">
        <ele>420.23</ele>
        <time>2013-11-06T13:45:55Z</time>
      </trkpt>
      <trkpt lat="44.6022" lon="4.33191">
        <ele>420.71</ele>
        <time>2013-11-06T13:46:00Z</time>
      </trkpt>
      <trkpt lat="44.60221" lon="4.3319">
        <ele>421.19</ele>
        <time>2013-11-06T13:46:01Z</time>
      </trkpt>
      <trkpt lat="44.60234" lon="4.33175">
        <ele>424.08</ele>
        <time>2013-11-06T13:46:10Z</time>
      </trkpt>
      <trkpt lat="44.60249" lon="4.33133">
        <ele>426</ele>
        <time>2013-11-06T13:46:26Z</time>
      </trkpt>
      <trkpt lat="44.60254" lon="4.33092">
        <ele>429.37</ele>
        <time>2013-11-06T13:46:39Z</time>
      </trkpt>
      <trkpt lat="44.60259" lon="4.33063">
        <ele>432.73</ele>
        <time>2013-11-06T13:46:46Z</time>
      </trkpt>
      <trkpt lat="44.60271" lon="4.33034">
        <ele>433.69</ele>
        <time>2013-11-06T13:46:59Z</time>
      </trkpt>
      <trkpt lat="44.6027" lon="4.33035">
        <ele>433.69</ele>
        <time>2013-11-06T13:47:01Z</time>
      </trkpt>
      <trkpt lat="44.6027" lon="4.33035">
        <ele>433.69</ele>
        <time>2013-11-06T13:47:02Z</time>
      </trkpt>
      <trkpt lat="44.60271" lon="4.33036">
        <ele>433.69</ele>
        <time>2013-11-06T13:47:04Z</time>
      </trkpt>
      <trkpt lat="44.60276" lon="4.33029">
        <ele>433.69</ele>
        <time>2013-11-06T13:47:16Z</time>
      </trkpt>
      <trkpt lat="44.60275" lon="4.33028">
        <ele>433.69</ele>
        <time>2013-11-06T13:47:17Z</time>
      </trkpt>
      <trkpt lat="44.60274" lon="4.33027">
        <ele>433.69</ele>
        <time>2013-11-06T13:47:18Z</time>
      </trkpt>
      <trkpt lat="44.60273" lon="4.33025">
        <ele>433.69</ele>
        <time>2013-11-06T13:47:19Z</time>
      </trkpt>
      <trkpt lat="44.60272" lon="4.33023">
        <ele>433.69</ele>
        <time>2013-11-06T13:47:20Z</time>
      </trkpt>
      <trkpt lat="44.60271" lon="4.33022">
        <ele>433.69</ele>
        <time>2013-11-06T13:47:21Z</time>
      </trkpt>
      <trkpt lat="44.60271" lon="4.33019">
        <ele>434.17</ele>
        <time>2013-11-06T13:47:23Z</time>
      </trkpt>
      <trkpt lat="44.60264" lon="4.33016">
        <ele>434.17</ele>
        <time>2013-11-06T13:47:34Z</time>
      </trkpt>
      <trkpt lat="44.60264" lon="4.33016">
        <ele>434.17</ele>
        <time>2013-11-06T13:47:54Z</time>
      </trkpt>
      <trkpt lat="44.60264" lon="4.33016">
        <ele>434.65</ele>
        <time>2013-11-06T13:48:11Z</time>
      </trkpt>
      <trkpt lat="44.60262" lon="4.33016">
        <ele>434.65</ele>
        <time>2013-11-06T13:48:12Z</time>
      </trkpt>
      <trkpt lat="44.6026" lon="4.33015">
        <ele>434.65</ele>
        <time>2013-11-06T13:48:13Z</time>
      </trkpt>
      <trkpt lat="44.60259" lon="4.33014">
        <ele>434.65</ele>
        <time>2013-11-06T13:48:14Z</time>
      </trkpt>
      <trkpt lat="44.60254" lon="4.33012">
        <ele>435.13</ele>
        <time>2013-11-06T13:48:17Z</time>
      </trkpt>
      <trkpt lat="44.60252" lon="4.33011">
        <ele>435.13</ele>
        <time>2013-11-06T13:48:18Z</time>
      </trkpt>
      <trkpt lat="44.60251" lon="4.33009">
        <ele>435.61</ele>
        <time>2013-11-06T13:48:19Z</time>
      </trkpt>
      <trkpt lat="44.6025" lon="4.33007">
        <ele>435.13</ele>
        <time>2013-11-06T13:48:20Z</time>
      </trkpt>
      <trkpt lat="44.60249" lon="4.33005">
        <ele>435.61</ele>
        <time>2013-11-06T13:48:21Z</time>
      </trkpt>
      <trkpt lat="44.60248" lon="4.33002">
        <ele>435.61</ele>
        <time>2013-11-06T13:48:22Z</time>
      </trkpt>
      <trkpt lat="44.60247" lon="4.32999">
        <ele>435.61</ele>
        <time>2013-11-06T13:48:23Z</time>
      </trkpt>
      <trkpt lat="44.60247" lon="4.32996">
        <ele>435.61</ele>
        <time>2013-11-06T13:48:24Z</time>
      </trkpt>
      <trkpt lat="44.60247" lon="4.32993">
        <ele>435.13</ele>
        <time>2013-11-06T13:48:25Z</time>
      </trkpt>
      <trkpt lat="44.60252" lon="4.3296">
        <ele>436.58</ele>
        <time>2013-11-06T13:48:37Z</time>
      </trkpt>
      <trkpt lat="44.60266" lon="4.32911">
        <ele>436.1</ele>
        <time>2013-11-06T13:48:50Z</time>
      </trkpt>
      <trkpt lat="44.60296" lon="4.32885">
        <ele>437.54</ele>
        <time>2013-11-06T13:49:02Z</time>
      </trkpt>
      <trkpt lat="44.60325" lon="4.32852">
        <ele>439.46</ele>
        <time>2013-11-06T13:49:14Z</time>
      </trkpt>
      <trkpt lat="44.60342" lon="4.3279">
        <ele>441.86</ele>
        <time>2013-11-06T13:49:27Z</time>
      </trkpt>
      <trkpt lat="44.60359" lon="4.32742">
        <ele>441.86</ele>
        <time>2013-11-06T13:49:41Z</time>
      </trkpt>
      <trkpt lat="44.6038" lon="4.32683">
        <ele>441.38</ele>
        <time>2013-11-06T13:49:53Z</time>
      </trkpt>
      <trkpt lat="44.60396" lon="4.32624">
        <ele>443.31</ele>
        <time>2013-11-06T13:50:06Z</time>
      </trkpt>
      <trkpt lat="44.60409" lon="4.32593">
        <ele>444.27</ele>
        <time>2013-11-06T13:50:21Z</time>
      </trkpt>
      <trkpt lat="44.60409" lon="4.32586">
        <ele>444.75</ele>
        <time>2013-11-06T13:50:25Z</time>
      </trkpt>
      <trkpt lat="44.60409" lon="4.32584">
        <ele>444.75</ele>
        <time>2013-11-06T13:50:26Z</time>
      </trkpt>
      <trkpt lat="44.60407" lon="4.32583">
        <ele>444.75</ele>
        <time>2013-11-06T13:50:27Z</time>
      </trkpt>
      <trkpt lat="44.60364" lon="4.32553">
        <ele>445.71</ele>
        <time>2013-11-06T13:50:41Z</time>
      </trkpt>
      <trkpt lat="44.6035" lon="4.32523">
        <ele>445.23</ele>
        <time>2013-11-06T13:50:48Z</time>
      </trkpt>
      <trkpt lat="44.60348" lon="4.32517">
        <ele>444.75</ele>
        <time>2013-11-06T13:50:49Z</time>
      </trkpt>
      <trkpt lat="44.60346" lon="4.3251">
        <ele>444.75</ele>
        <time>2013-11-06T13:50:50Z</time>
      </trkpt>
      <trkpt lat="44.60345" lon="4.32502">
        <ele>444.75</ele>
        <time>2013-11-06T13:50:51Z</time>
      </trkpt>
      <trkpt lat="44.60345" lon="4.32495">
        <ele>444.75</ele>
        <time>2013-11-06T13:50:52Z</time>
      </trkpt>
      <trkpt lat="44.60344" lon="4.32488">
        <ele>444.27</ele>
        <time>2013-11-06T13:50:53Z</time>
      </trkpt>
      <trkpt lat="44.60345" lon="4.3248">
        <ele>443.79</ele>
        <time>2013-11-06T13:50:54Z</time>
      </trkpt>
      <trkpt lat="44.60346" lon="4.32472">
        <ele>443.31</ele>
        <time>2013-11-06T13:50:55Z</time>
      </trkpt>
      <trkpt lat="44.60348" lon="4.32464">
        <ele>442.82</ele>
        <time>2013-11-06T13:50:56Z</time>
      </trkpt>
      <trkpt lat="44.6035" lon="4.32457">
        <ele>442.34</ele>
        <time>2013-11-06T13:50:57Z</time>
      </trkpt>
      <trkpt lat="44.60355" lon="4.3244">
        <ele>441.86</ele>
        <time>2013-11-06T13:50:59Z</time>
      </trkpt>
      <trkpt lat="44.60356" lon="4.32431">
        <ele>441.38</ele>
        <time>2013-11-06T13:51:00Z</time>
      </trkpt>
      <trkpt lat="44.60357" lon="4.32421">
        <ele>440.9</ele>
        <time>2013-11-06T13:51:01Z</time>
      </trkpt>
      <trkpt lat="44.60357" lon="4.324">
        <ele>440.9</ele>
        <time>2013-11-06T13:51:03Z</time>
      </trkpt>
      <trkpt lat="44.60356" lon="4.3239">
        <ele>440.9</ele>
        <time>2013-11-06T13:51:04Z</time>
      </trkpt>
      <trkpt lat="44.60354" lon="4.32381">
        <ele>440.42</ele>
        <time>2013-11-06T13:51:05Z</time>
      </trkpt>
      <trkpt lat="44.60352" lon="4.32374">
        <ele>439.94</ele>
        <time>2013-11-06T13:51:06Z</time>
      </trkpt>
      <trkpt lat="44.60348" lon="4.32368">
        <ele>439.94</ele>
        <time>2013-11-06T13:51:07Z</time>
      </trkpt>
      <trkpt lat="44.60343" lon="4.32363">
        <ele>439.46</ele>
        <time>2013-11-06T13:51:08Z</time>
      </trkpt>
      <trkpt lat="44.60336" lon="4.32359">
        <ele>438.98</ele>
        <time>2013-11-06T13:51:09Z</time>
      </trkpt>
      <trkpt lat="44.60328" lon="4.32355">
        <ele>438.5</ele>
        <time>2013-11-06T13:51:10Z</time>
      </trkpt>
      <trkpt lat="44.60234" lon="4.32322">
        <ele>437.06</ele>
        <time>2013-11-06T13:51:22Z</time>
      </trkpt>
      <trkpt lat="44.60229" lon="4.32319">
        <ele>437.54</ele>
        <time>2013-11-06T13:51:23Z</time>
      </trkpt>
      <trkpt lat="44.60224" lon="4.32315">
        <ele>438.02</ele>
        <time>2013-11-06T13:51:24Z</time>
      </trkpt>
      <trkpt lat="44.6022" lon="4.32311">
        <ele>438.5</ele>
        <time>2013-11-06T13:51:25Z</time>
      </trkpt>
      <trkpt lat="44.60217" lon="4.32307">
        <ele>438.98</ele>
        <time>2013-11-06T13:51:26Z</time>
      </trkpt>
      <trkpt lat="44.60215" lon="4.32304">
        <ele>439.46</ele>
        <time>2013-11-06T13:51:27Z</time>
      </trkpt>
      <trkpt lat="44.60205" lon="4.32302">
        <ele>439.94</ele>
        <time>2013-11-06T13:51:31Z</time>
      </trkpt>
      <trkpt lat="44.60202" lon="4.32304">
        <ele>439.94</ele>
        <time>2013-11-06T13:51:32Z</time>
      </trkpt>
      <trkpt lat="44.60199" lon="4.32307">
        <ele>439.46</ele>
        <time>2013-11-06T13:51:33Z</time>
      </trkpt>
      <trkpt lat="44.60197" lon="4.32308">
        <ele>439.94</ele>
        <time>2013-11-06T13:51:34Z</time>
      </trkpt>
      <trkpt lat="44.60195" lon="4.32309">
        <ele>439.94</ele>
        <time>2013-11-06T13:51:35Z</time>
      </trkpt>
      <trkpt lat="44.60194" lon="4.32309">
        <ele>439.94</ele>
        <time>2013-11-06T13:51:36Z</time>
      </trkpt>
      <trkpt lat="44.60191" lon="4.32307">
        <ele>440.42</ele>
        <time>2013-11-06T13:51:39Z</time>
      </trkpt>
      <trkpt lat="44.60189" lon="4.32306">
        <ele>439.94</ele>
        <time>2013-11-06T13:51:40Z</time>
      </trkpt>
      <trkpt lat="44.60187" lon="4.32305">
        <ele>439.94</ele>
        <time>2013-11-06T13:51:41Z</time>
      </trkpt>
      <trkpt lat="44.60161" lon="4.32289">
        <ele>437.06</ele>
        <time>2013-11-06T13:51:52Z</time>
      </trkpt>
      <trkpt lat="44.60155" lon="4.32276">
        <ele>435.61</ele>
        <time>2013-11-06T13:51:55Z</time>
      </trkpt>
      <trkpt lat="44.60152" lon="4.32257">
        <ele>434.17</ele>
        <time>2013-11-06T13:51:58Z</time>
      </trkpt>
      <trkpt lat="44.60137" lon="4.32233">
        <ele>432.25</ele>
        <time>2013-11-06T13:52:08Z</time>
      </trkpt>
      <trkpt lat="44.60136" lon="4.32231">
        <ele>432.25</ele>
        <time>2013-11-06T13:52:28Z</time>
      </trkpt>
      <trkpt lat="44.60134" lon="4.32232">
        <ele>432.25</ele>
        <time>2013-11-06T13:52:30Z</time>
      </trkpt>
      <trkpt lat="44.60132" lon="4.32233">
        <ele>432.25</ele>
        <time>2013-11-06T13:52:31Z</time>
      </trkpt>
      <trkpt lat="44.60131" lon="4.32233">
        <ele>432.25</ele>
        <time>2013-11-06T13:52:32Z</time>
      </trkpt>
      <trkpt lat="44.60099" lon="4.32236">
        <ele>432.25</ele>
        <time>2013-11-06T13:52:46Z</time>
      </trkpt>
      <trkpt lat="44.60052" lon="4.32232">
        <ele>428.89</ele>
        <time>2013-11-06T13:52:59Z</time>
      </trkpt>
      <trkpt lat="44.60048" lon="4.32233">
        <ele>428.4</ele>
        <time>2013-11-06T13:53:00Z</time>
      </trkpt>
      <trkpt lat="44.60028" lon="4.3224">
        <ele>426.96</ele>
        <time>2013-11-06T13:53:12Z</time>
      </trkpt>
      <trkpt lat="44.60013" lon="4.32242">
        <ele>426.96</ele>
        <time>2013-11-06T13:53:19Z</time>
      </trkpt>
      <trkpt lat="44.59981" lon="4.32247">
        <ele>426</ele>
        <time>2013-11-06T13:53:35Z</time>
      </trkpt>
      <trkpt lat="44.59946" lon="4.32248">
        <ele>424.56</ele>
        <time>2013-11-06T13:53:49Z</time>
      </trkpt>
      <trkpt lat="44.59935" lon="4.32246">
        <ele>423.6</ele>
        <time>2013-11-06T13:53:56Z</time>
      </trkpt>
      <trkpt lat="44.59921" lon="4.32244">
        <ele>422.64</ele>
        <time>2013-11-06T13:54:02Z</time>
      </trkpt>
      <trkpt lat="44.59894" lon="4.32251">
        <ele>418.79</ele>
        <time>2013-11-06T13:54:13Z</time>
      </trkpt>
      <trkpt lat="44.59893" lon="4.32253">
        <ele>417.83</ele>
        <time>2013-11-06T13:54:15Z</time>
      </trkpt>
      <trkpt lat="44.59883" lon="4.32245">
        <ele>417.83</ele>
        <time>2013-11-06T13:54:29Z</time>
      </trkpt>
      <trkpt lat="44.59882" lon="4.32245">
        <ele>417.83</ele>
        <time>2013-11-06T13:54:48Z</time>
      </trkpt>
      <trkpt lat="44.59881" lon="4.32246">
        <ele>418.31</ele>
        <time>2013-11-06T13:55:06Z</time>
      </trkpt>
      <trkpt lat="44.59881" lon="4.32246">
        <ele>418.31</ele>
        <time>2013-11-06T13:55:32Z</time>
      </trkpt>
      <trkpt lat="44.59881" lon="4.32245">
        <ele>418.79</ele>
        <time>2013-11-06T13:56:01Z</time>
      </trkpt>
      <trkpt lat="44.59881" lon="4.32245">
        <ele>418.79</ele>
        <time>2013-11-06T13:56:35Z</time>
      </trkpt>
      <trkpt lat="44.59881" lon="4.32245">
        <ele>419.27</ele>
        <time>2013-11-06T13:57:04Z</time>
      </trkpt>
      <trkpt lat="44.59881" lon="4.32244">
        <ele>419.75</ele>
        <time>2013-11-06T13:57:34Z</time>
      </trkpt>
      <trkpt lat="44.59881" lon="4.32244">
        <ele>419.75</ele>
        <time>2013-11-06T13:58:04Z</time>
      </trkpt>
      <trkpt lat="44.59881" lon="4.32244">
        <ele>420.23</ele>
        <time>2013-11-06T13:58:33Z</time>
      </trkpt>
      <trkpt lat="44.59867" lon="4.32247">
        <ele>420.71</ele>
        <time>2013-11-06T13:58:54Z</time>
      </trkpt>
      <trkpt lat="44.59831" lon="4.32261">
        <ele>417.35</ele>
        <time>2013-11-06T13:59:04Z</time>
      </trkpt>
      <trkpt lat="44.59829" lon="4.32261">
        <ele>416.87</ele>
        <time>2013-11-06T13:59:05Z</time>
      </trkpt>
      <trkpt lat="44.59828" lon="4.32261">
        <ele>416.87</ele>
        <time>2013-11-06T13:59:06Z</time>
      </trkpt>
      <trkpt lat="44.59827" lon="4.3226">
        <ele>416.39</ele>
        <time>2013-11-06T13:59:07Z</time>
      </trkpt>
      <trkpt lat="44.59825" lon="4.32258">
        <ele>415.91</ele>
        <time>2013-11-06T13:59:08Z</time>
      </trkpt>
      <trkpt lat="44.59825" lon="4.32257">
        <ele>415.43</ele>
        <time>2013-11-06T13:59:09Z</time>
      </trkpt>
      <trkpt lat="44.59824" lon="4.32256">
        <ele>414.95</ele>
        <time>2013-11-06T13:59:10Z</time>
      </trkpt>
      <trkpt lat="44.59823" lon="4.32254">
        <ele>413.98</ele>
        <time>2013-11-06T13:59:11Z</time>
      </trkpt>
      <trkpt lat="44.59821" lon="4.32252">
        <ele>413.5</ele>
        <time>2013-11-06T13:59:12Z</time>
      </trkpt>
      <trkpt lat="44.59819" lon="4.32248">
        <ele>413.5</ele>
        <time>2013-11-06T13:59:13Z</time>
      </trkpt>
      <trkpt lat="44.59817" lon="4.32244">
        <ele>413.02</ele>
        <time>2013-11-06T13:59:14Z</time>
      </trkpt>
      <trkpt lat="44.59801" lon="4.3222">
        <ele>411.1</ele>
        <time>2013-11-06T13:59:26Z</time>
      </trkpt>
      <trkpt lat="44.59801" lon="4.32219">
        <ele>411.1</ele>
        <time>2013-11-06T13:59:30Z</time>
      </trkpt>
      <trkpt lat="44.59797" lon="4.32213">
        <ele>412.06</ele>
        <time>2013-11-06T13:59:43Z</time>
      </trkpt>
      <trkpt lat="44.59796" lon="4.32211">
        <ele>411.58</ele>
        <time>2013-11-06T13:59:52Z</time>
      </trkpt>
      <trkpt lat="44.59795" lon="4.3221">
        <ele>411.58</ele>
        <time>2013-11-06T13:59:53Z</time>
      </trkpt>
      <trkpt lat="44.59794" lon="4.32208">
        <ele>411.58</ele>
        <time>2013-11-06T13:59:54Z</time>
      </trkpt>
      <trkpt lat="44.5979" lon="4.32197">
        <ele>413.02</ele>
        <time>2013-11-06T14:00:06Z</time>
      </trkpt>
      <trkpt lat="44.59789" lon="4.32196">
        <ele>413.02</ele>
        <time>2013-11-06T14:00:07Z</time>
      </trkpt>
      <trkpt lat="44.59787" lon="4.32193">
        <ele>413.5</ele>
        <time>2013-11-06T14:00:13Z</time>
      </trkpt>
      <trkpt lat="44.59785" lon="4.32192">
        <ele>413.5</ele>
        <time>2013-11-06T14:00:14Z</time>
      </trkpt>
      <trkpt lat="44.59784" lon="4.3219">
        <ele>413.5</ele>
        <time>2013-11-06T14:00:15Z</time>
      </trkpt>
      <trkpt lat="44.59763" lon="4.3216">
        <ele>415.43</ele>
        <time>2013-11-06T14:00:31Z</time>
      </trkpt>
      <trkpt lat="44.59748" lon="4.32114">
        <ele>416.87</ele>
        <time>2013-11-06T14:00:47Z</time>
      </trkpt>
      <trkpt lat="44.59748" lon="4.32108">
        <ele>416.87</ele>
        <time>2013-11-06T14:01:01Z</time>
      </trkpt>
      <trkpt lat="44.59748" lon="4.32108">
        <ele>416.39</ele>
        <time>2013-11-06T14:01:27Z</time>
      </trkpt>
      <trkpt lat="44.59748" lon="4.32108">
        <ele>415.91</ele>
        <time>2013-11-06T14:01:51Z</time>
      </trkpt>
      <trkpt lat="44.59748" lon="4.32108">
        <ele>415.91</ele>
        <time>2013-11-06T14:02:16Z</time>
      </trkpt>
      <trkpt lat="44.59748" lon="4.32108">
        <ele>415.91</ele>
        <time>2013-11-06T14:02:42Z</time>
      </trkpt>
      <trkpt lat="44.59748" lon="4.32108">
        <ele>415.91</ele>
        <time>2013-11-06T14:03:05Z</time>
      </trkpt>
      <trkpt lat="44.59733" lon="4.32091">
        <ele>414.47</ele>
        <time>2013-11-06T14:03:18Z</time>
      </trkpt>
      <trkpt lat="44.59725" lon="4.32069">
        <ele>414.47</ele>
        <time>2013-11-06T14:03:23Z</time>
      </trkpt>
      <trkpt lat="44.5971" lon="4.32045">
        <ele>414.47</ele>
        <time>2013-11-06T14:03:31Z</time>
      </trkpt>
      <trkpt lat="44.59689" lon="4.32012">
        <ele>416.39</ele>
        <time>2013-11-06T14:03:41Z</time>
      </trkpt>
      <trkpt lat="44.59666" lon="4.31977">
        <ele>418.79</ele>
        <time>2013-11-06T14:03:54Z</time>
      </trkpt>
      <trkpt lat="44.59644" lon="4.31941">
        <ele>420.71</ele>
        <time>2013-11-06T14:04:07Z</time>
      </trkpt>
      <trkpt lat="44.59629" lon="4.31915">
        <ele>422.64</ele>
        <time>2013-11-06T14:04:15Z</time>
      </trkpt>
      <trkpt lat="44.59626" lon="4.31912">
        <ele>423.6</ele>
        <time>2013-11-06T14:04:21Z</time>
      </trkpt>
      <trkpt lat="44.59638" lon="4.3192">
        <ele>424.56</ele>
        <time>2013-11-06T14:04:34Z</time>
      </trkpt>
      <trkpt lat="44.59646" lon="4.31917">
        <ele>425.04</ele>
        <time>2013-11-06T14:04:47Z</time>
      </trkpt>
      <trkpt lat="44.59646" lon="4.31917">
        <ele>424.56</ele>
        <time>2013-11-06T14:05:01Z</time>
      </trkpt>
      <trkpt lat="44.59646" lon="4.31917">
        <ele>424.56</ele>
        <time>2013-11-06T14:05:29Z</time>
      </trkpt>
      <trkpt lat="44.59646" lon="4.31917">
        <ele>424.56</ele>
        <time>2013-11-06T14:05:59Z</time>
      </trkpt>
      <trkpt lat="44.59646" lon="4.31917">
        <ele>424.08</ele>
        <time>2013-11-06T14:06:27Z</time>
      </trkpt>
      <trkpt lat="44.59646" lon="4.31917">
        <ele>424.08</ele>
        <time>2013-11-06T14:06:38Z</time>
      </trkpt>
      <trkpt lat="44.59659" lon="4.31927">
        <ele>426.48</ele>
        <time>2013-11-06T14:06:51Z</time>
      </trkpt>
      <trkpt lat="44.5967" lon="4.31938">
        <ele>427.92</ele>
        <time>2013-11-06T14:07:03Z</time>
      </trkpt>
      <trkpt lat="44.59679" lon="4.31946">
        <ele>430.33</ele>
        <time>2013-11-06T14:07:16Z</time>
      </trkpt>
      <trkpt lat="44.59695" lon="4.3196">
        <ele>432.73</ele>
        <time>2013-11-06T14:07:32Z</time>
      </trkpt>
      <trkpt lat="44.5971" lon="4.3197">
        <ele>433.69</ele>
        <time>2013-11-06T14:07:47Z</time>
      </trkpt>
      <trkpt lat="44.59728" lon="4.31983">
        <ele>436.1</ele>
        <time>2013-11-06T14:08:04Z</time>
      </trkpt>
      <trkpt lat="44.59741" lon="4.31993">
        <ele>437.54</ele>
        <time>2013-11-06T14:08:21Z</time>
      </trkpt>
      <trkpt lat="44.59742" lon="4.31994">
        <ele>437.54</ele>
        <time>2013-11-06T14:08:22Z</time>
      </trkpt>
      <trkpt lat="44.59767" lon="4.32017">
        <ele>439.46</ele>
        <time>2013-11-06T14:08:40Z</time>
      </trkpt>
      <trkpt lat="44.59787" lon="4.32034">
        <ele>441.38</ele>
        <time>2013-11-06T14:08:55Z</time>
      </trkpt>
      <trkpt lat="44.59814" lon="4.32061">
        <ele>443.79</ele>
        <time>2013-11-06T14:09:13Z</time>
      </trkpt>
      <trkpt lat="44.59821" lon="4.32067">
        <ele>445.23</ele>
        <time>2013-11-06T14:09:29Z</time>
      </trkpt>
      <trkpt lat="44.59829" lon="4.32068">
        <ele>446.67</ele>
        <time>2013-11-06T14:09:39Z</time>
      </trkpt>
      <trkpt lat="44.59855" lon="4.32085">
        <ele>448.11</ele>
        <time>2013-11-06T14:09:55Z</time>
      </trkpt>
      <trkpt lat="44.59866" lon="4.32097">
        <ele>448.59</ele>
        <time>2013-11-06T14:10:02Z</time>
      </trkpt>
      <trkpt lat="44.5989" lon="4.32115">
        <ele>450.52</ele>
        <time>2013-11-06T14:10:15Z</time>
      </trkpt>
      <trkpt lat="44.59905" lon="4.32121">
        <ele>452.44</ele>
        <time>2013-11-06T14:10:24Z</time>
      </trkpt>
      <trkpt lat="44.59907" lon="4.32113">
        <ele>453.4</ele>
        <time>2013-11-06T14:10:32Z</time>
      </trkpt>
      <trkpt lat="44.59902" lon="4.32088">
        <ele>455.32</ele>
        <time>2013-11-06T14:10:46Z</time>
      </trkpt>
      <trkpt lat="44.59894" lon="4.32058">
        <ele>457.24</ele>
        <time>2013-11-06T14:10:59Z</time>
      </trkpt>
      <trkpt lat="44.59893" lon="4.32054">
        <ele>457.72</ele>
        <time>2013-11-06T14:11:01Z</time>
      </trkpt>
      <trkpt lat="44.59895" lon="4.3205">
        <ele>458.69</ele>
        <time>2013-11-06T14:11:10Z</time>
      </trkpt>
      <trkpt lat="44.59905" lon="4.32052">
        <ele>460.13</ele>
        <time>2013-11-06T14:11:20Z</time>
      </trkpt>
      <trkpt lat="44.59914" lon="4.32051">
        <ele>461.57</ele>
        <time>2013-11-06T14:11:29Z</time>
      </trkpt>
      <trkpt lat="44.59927" lon="4.32055">
        <ele>462.53</ele>
        <time>2013-11-06T14:11:40Z</time>
      </trkpt>
      <trkpt lat="44.59935" lon="4.32061">
        <ele>462.53</ele>
        <time>2013-11-06T14:11:45Z</time>
      </trkpt>
      <trkpt lat="44.59944" lon="4.32067">
        <ele>463.01</ele>
        <time>2013-11-06T14:12:01Z</time>
      </trkpt>
      <trkpt lat="44.59945" lon="4.32066">
        <ele>462.53</ele>
        <time>2013-11-06T14:12:30Z</time>
      </trkpt>
      <trkpt lat="44.59945" lon="4.32066">
        <ele>462.53</ele>
        <time>2013-11-06T14:12:59Z</time>
      </trkpt>
      <trkpt lat="44.59945" lon="4.32066">
        <ele>462.53</ele>
        <time>2013-11-06T14:13:37Z</time>
      </trkpt>
      <trkpt lat="44.59946" lon="4.32067">
        <ele>462.53</ele>
        <time>2013-11-06T14:14:05Z</time>
      </trkpt>
      <trkpt lat="44.59961" lon="4.3207">
        <ele>463.01</ele>
        <time>2013-11-06T14:14:13Z</time>
      </trkpt>
      <trkpt lat="44.59993" lon="4.32062">
        <ele>462.53</ele>
        <time>2013-11-06T14:14:25Z</time>
      </trkpt>
      <trkpt lat="44.59994" lon="4.3206">
        <ele>462.53</ele>
        <time>2013-11-06T14:14:26Z</time>
      </trkpt>
      <trkpt lat="44.60025" lon="4.32062">
        <ele>464.45</ele>
        <time>2013-11-06T14:14:39Z</time>
      </trkpt>
      <trkpt lat="44.6003" lon="4.32056">
        <ele>465.42</ele>
        <time>2013-11-06T14:14:43Z</time>
      </trkpt>
      <trkpt lat="44.6004" lon="4.32023">
        <ele>466.38</ele>
        <time>2013-11-06T14:14:57Z</time>
      </trkpt>
      <trkpt lat="44.60064" lon="4.31983">
        <ele>467.34</ele>
        <time>2013-11-06T14:15:11Z</time>
      </trkpt>
      <trkpt lat="44.60082" lon="4.31936">
        <ele>469.26</ele>
        <time>2013-11-06T14:15:28Z</time>
      </trkpt>
      <trkpt lat="44.60084" lon="4.31933">
        <ele>469.26</ele>
        <time>2013-11-06T14:15:47Z</time>
      </trkpt>
      <trkpt lat="44.60085" lon="4.31932">
        <ele>469.26</ele>
        <time>2013-11-06T14:16:07Z</time>
      </trkpt>
      <trkpt lat="44.60091" lon="4.31928">
        <ele>469.26</ele>
        <time>2013-11-06T14:16:24Z</time>
      </trkpt>
      <trkpt lat="44.60093" lon="4.31923">
        <ele>469.26</ele>
        <time>2013-11-06T14:16:33Z</time>
      </trkpt>
      <trkpt lat="44.60107" lon="4.31925">
        <ele>469.26</ele>
        <time>2013-11-06T14:16:39Z</time>
      </trkpt>
      <trkpt lat="44.60136" lon="4.31919">
        <ele>469.74</ele>
        <time>2013-11-06T14:16:49Z</time>
      </trkpt>
      <trkpt lat="44.60173" lon="4.31917">
        <ele>470.7</ele>
        <time>2013-11-06T14:17:00Z</time>
      </trkpt>
      <trkpt lat="44.60198" lon="4.3193">
        <ele>471.18</ele>
        <time>2013-11-06T14:17:07Z</time>
      </trkpt>
      <trkpt lat="44.60202" lon="4.31933">
        <ele>471.18</ele>
        <time>2013-11-06T14:17:08Z</time>
      </trkpt>
      <trkpt lat="44.60219" lon="4.31943">
        <ele>471.18</ele>
        <time>2013-11-06T14:17:13Z</time>
      </trkpt>
      <trkpt lat="44.60223" lon="4.31944">
        <ele>471.66</ele>
        <time>2013-11-06T14:17:14Z</time>
      </trkpt>
      <trkpt lat="44.60226" lon="4.31943">
        <ele>471.66</ele>
        <time>2013-11-06T14:17:15Z</time>
      </trkpt>
      <trkpt lat="44.60229" lon="4.31942">
        <ele>472.14</ele>
        <time>2013-11-06T14:17:16Z</time>
      </trkpt>
      <trkpt lat="44.6023" lon="4.3194">
        <ele>472.63</ele>
        <time>2013-11-06T14:17:17Z</time>
      </trkpt>
      <trkpt lat="44.60232" lon="4.31938">
        <ele>472.63</ele>
        <time>2013-11-06T14:17:18Z</time>
      </trkpt>
      <trkpt lat="44.60234" lon="4.31937">
        <ele>472.14</ele>
        <time>2013-11-06T14:17:19Z</time>
      </trkpt>
      <trkpt lat="44.60236" lon="4.31935">
        <ele>472.14</ele>
        <time>2013-11-06T14:17:20Z</time>
      </trkpt>
      <trkpt lat="44.60238" lon="4.31935">
        <ele>472.14</ele>
        <time>2013-11-06T14:17:21Z</time>
      </trkpt>
      <trkpt lat="44.6024" lon="4.31935">
        <ele>472.14</ele>
        <time>2013-11-06T14:17:22Z</time>
      </trkpt>
      <trkpt lat="44.60242" lon="4.31935">
        <ele>472.14</ele>
        <time>2013-11-06T14:17:23Z</time>
      </trkpt>
      <trkpt lat="44.60243" lon="4.31935">
        <ele>472.14</ele>
        <time>2013-11-06T14:17:24Z</time>
      </trkpt>
      <trkpt lat="44.60245" lon="4.31934">
        <ele>472.63</ele>
        <time>2013-11-06T14:17:37Z</time>
      </trkpt>
      <trkpt lat="44.60245" lon="4.31934">
        <ele>472.63</ele>
        <time>2013-11-06T14:17:39Z</time>
      </trkpt>
      <trkpt lat="44.60245" lon="4.31934">
        <ele>471.66</ele>
        <time>2013-11-06T14:17:54Z</time>
      </trkpt>
      <trkpt lat="44.60247" lon="4.31934">
        <ele>472.14</ele>
        <time>2013-11-06T14:18:05Z</time>
      </trkpt>
      <trkpt lat="44.60248" lon="4.31935">
        <ele>471.66</ele>
        <time>2013-11-06T14:18:07Z</time>
      </trkpt>
      <trkpt lat="44.6025" lon="4.31936">
        <ele>472.14</ele>
        <time>2013-11-06T14:18:08Z</time>
      </trkpt>
      <trkpt lat="44.60251" lon="4.31938">
        <ele>472.14</ele>
        <time>2013-11-06T14:18:09Z</time>
      </trkpt>
      <trkpt lat="44.60254" lon="4.31939">
        <ele>472.14</ele>
        <time>2013-11-06T14:18:10Z</time>
      </trkpt>
      <trkpt lat="44.60256" lon="4.3194">
        <ele>472.14</ele>
        <time>2013-11-06T14:18:11Z</time>
      </trkpt>
      <trkpt lat="44.60259" lon="4.31941">
        <ele>472.14</ele>
        <time>2013-11-06T14:18:12Z</time>
      </trkpt>
      <trkpt lat="44.60263" lon="4.31942">
        <ele>471.18</ele>
        <time>2013-11-06T14:18:13Z</time>
      </trkpt>
      <trkpt lat="44.60267" lon="4.31944">
        <ele>470.7</ele>
        <time>2013-11-06T14:18:14Z</time>
      </trkpt>
      <trkpt lat="44.60327" lon="4.31964">
        <ele>469.74</ele>
        <time>2013-11-06T14:18:26Z</time>
      </trkpt>
      <trkpt lat="44.60347" lon="4.31977">
        <ele>472.63</ele>
        <time>2013-11-06T14:18:33Z</time>
      </trkpt>
      <trkpt lat="44.60378" lon="4.31997">
        <ele>475.99</ele>
        <time>2013-11-06T14:18:44Z</time>
      </trkpt>
      <trkpt lat="44.60406" lon="4.32022">
        <ele>476.95</ele>
        <time>2013-11-06T14:18:55Z</time>
      </trkpt>
      <trkpt lat="44.60435" lon="4.32044">
        <ele>478.87</ele>
        <time>2013-11-06T14:19:06Z</time>
      </trkpt>
      <trkpt lat="44.60465" lon="4.3206">
        <ele>481.76</ele>
        <time>2013-11-06T14:19:18Z</time>
      </trkpt>
      <trkpt lat="44.60494" lon="4.32078">
        <ele>484.16</ele>
        <time>2013-11-06T14:19:32Z</time>
      </trkpt>
      <trkpt lat="44.60518" lon="4.32089">
        <ele>484.16</ele>
        <time>2013-11-06T14:19:45Z</time>
      </trkpt>
      <trkpt lat="44.60545" lon="4.32124">
        <ele>482.24</ele>
        <time>2013-11-06T14:19:56Z</time>
      </trkpt>
      <trkpt lat="44.60559" lon="4.32151">
        <ele>480.32</ele>
        <time>2013-11-06T14:20:02Z</time>
      </trkpt>
      <trkpt lat="44.60561" lon="4.3216">
        <ele>480.8</ele>
        <time>2013-11-06T14:20:12Z</time>
      </trkpt>
      <trkpt lat="44.60561" lon="4.3216">
        <ele>480.8</ele>
        <time>2013-11-06T14:20:29Z</time>
      </trkpt>
      <trkpt lat="44.60561" lon="4.3216">
        <ele>480.8</ele>
        <time>2013-11-06T14:20:52Z</time>
      </trkpt>
      <trkpt lat="44.60561" lon="4.3216">
        <ele>481.28</ele>
        <time>2013-11-06T14:20:56Z</time>
      </trkpt>
      <trkpt lat="44.60561" lon="4.32165">
        <ele>481.76</ele>
        <time>2013-11-06T14:21:09Z</time>
      </trkpt>
      <trkpt lat="44.60561" lon="4.32165">
        <ele>481.28</ele>
        <time>2013-11-06T14:21:30Z</time>
      </trkpt>
      <trkpt lat="44.60561" lon="4.32165">
        <ele>481.28</ele>
        <time>2013-11-06T14:21:33Z</time>
      </trkpt>
      <trkpt lat="44.60568" lon="4.32162">
        <ele>480.8</ele>
        <time>2013-11-06T14:21:44Z</time>
      </trkpt>
      <trkpt lat="44.60567" lon="4.32164">
        <ele>481.28</ele>
        <time>2013-11-06T14:21:47Z</time>
      </trkpt>
      <trkpt lat="44.60563" lon="4.32181">
        <ele>482.72</ele>
        <time>2013-11-06T14:22:00Z</time>
      </trkpt>
      <trkpt lat="44.60562" lon="4.32184">
        <ele>482.72</ele>
        <time>2013-11-06T14:22:11Z</time>
      </trkpt>
      <trkpt lat="44.60557" lon="4.32197">
        <ele>484.16</ele>
        <time>2013-11-06T14:22:24Z</time>
      </trkpt>
      <trkpt lat="44.60554" lon="4.3221">
        <ele>484.16</ele>
        <time>2013-11-06T14:22:37Z</time>
      </trkpt>
      <trkpt lat="44.60554" lon="4.3221">
        <ele>483.2</ele>
        <time>2013-11-06T14:22:38Z</time>
      </trkpt>
      <trkpt lat="44.60547" lon="4.32232">
        <ele>485.6</ele>
        <time>2013-11-06T14:22:46Z</time>
      </trkpt>
      <trkpt lat="44.60537" lon="4.32261">
        <ele>487.05</ele>
        <time>2013-11-06T14:22:56Z</time>
      </trkpt>
      <trkpt lat="44.60537" lon="4.32261">
        <ele>486.56</ele>
        <time>2013-11-06T14:23:11Z</time>
      </trkpt>
      <trkpt lat="44.60537" lon="4.32262">
        <ele>487.05</ele>
        <time>2013-11-06T14:23:32Z</time>
      </trkpt>
      <trkpt lat="44.60536" lon="4.32264">
        <ele>486.56</ele>
        <time>2013-11-06T14:23:47Z</time>
      </trkpt>
      <trkpt lat="44.60536" lon="4.32264">
        <ele>486.56</ele>
        <time>2013-11-06T14:24:15Z</time>
      </trkpt>
      <trkpt lat="44.60536" lon="4.32264">
        <ele>486.08</ele>
        <time>2013-11-06T14:24:41Z</time>
      </trkpt>
      <trkpt lat="44.60536" lon="4.32264">
        <ele>487.05</ele>
        <time>2013-11-06T14:25:10Z</time>
      </trkpt>
      <trkpt lat="44.60536" lon="4.32264">
        <ele>486.56</ele>
        <time>2013-11-06T14:25:32Z</time>
      </trkpt>
      <trkpt lat="44.60536" lon="4.32264">
        <ele>486.08</ele>
        <time>2013-11-06T14:25:51Z</time>
      </trkpt>
      <trkpt lat="44.60535" lon="4.32264">
        <ele>486.08</ele>
        <time>2013-11-06T14:26:19Z</time>
      </trkpt>
      <trkpt lat="44.60535" lon="4.32264">
        <ele>486.08</ele>
        <time>2013-11-06T14:26:48Z</time>
      </trkpt>
      <trkpt lat="44.60535" lon="4.32264">
        <ele>485.6</ele>
        <time>2013-11-06T14:27:10Z</time>
      </trkpt>
      <trkpt lat="44.60535" lon="4.32264">
        <ele>486.08</ele>
        <time>2013-11-06T14:27:36Z</time>
      </trkpt>
      <trkpt lat="44.60535" lon="4.32264">
        <ele>485.6</ele>
        <time>2013-11-06T14:28:08Z</time>
      </trkpt>
      <trkpt lat="44.60535" lon="4.32264">
        <ele>485.6</ele>
        <time>2013-11-06T14:28:34Z</time>
      </trkpt>
      <trkpt lat="44.60535" lon="4.32264">
        <ele>485.6</ele>
        <time>2013-11-06T14:29:02Z</time>
      </trkpt>
      <trkpt lat="44.60535" lon="4.32264">
        <ele>485.12</ele>
        <time>2013-11-06T14:29:35Z</time>
      </trkpt>
      <trkpt lat="44.60535" lon="4.32264">
        <ele>485.6</ele>
        <time>2013-11-06T14:30:07Z</time>
      </trkpt>
      <trkpt lat="44.60535" lon="4.32264">
        <ele>486.08</ele>
        <time>2013-11-06T14:30:30Z</time>
      </trkpt>
      <trkpt lat="44.60535" lon="4.32265">
        <ele>485.6</ele>
        <time>2013-11-06T14:30:53Z</time>
      </trkpt>
      <trkpt lat="44.60535" lon="4.32265">
        <ele>485.6</ele>
        <time>2013-11-06T14:31:19Z</time>
      </trkpt>
      <trkpt lat="44.60539" lon="4.32266">
        <ele>485.6</ele>
        <time>2013-11-06T14:31:24Z</time>
      </trkpt>
      <trkpt lat="44.60554" lon="4.32277">
        <ele>486.08</ele>
        <time>2013-11-06T14:31:39Z</time>
      </trkpt>
      <trkpt lat="44.60583" lon="4.32298">
        <ele>487.05</ele>
        <time>2013-11-06T14:31:54Z</time>
      </trkpt>
      <trkpt lat="44.6061" lon="4.32322">
        <ele>488.01</ele>
        <time>2013-11-06T14:32:08Z</time>
      </trkpt>
      <trkpt lat="44.60635" lon="4.32343">
        <ele>488.49</ele>
        <time>2013-11-06T14:32:20Z</time>
      </trkpt>
      <trkpt lat="44.60662" lon="4.32363">
        <ele>489.45</ele>
        <time>2013-11-06T14:32:31Z</time>
      </trkpt>
      <trkpt lat="44.60687" lon="4.32376">
        <ele>490.89</ele>
        <time>2013-11-06T14:32:43Z</time>
      </trkpt>
      <trkpt lat="44.60691" lon="4.32377">
        <ele>491.37</ele>
        <time>2013-11-06T14:32:45Z</time>
      </trkpt>
      <trkpt lat="44.60716" lon="4.32387">
        <ele>492.81</ele>
        <time>2013-11-06T14:32:57Z</time>
      </trkpt>
      <trkpt lat="44.60739" lon="4.32397">
        <ele>494.26</ele>
        <time>2013-11-06T14:33:08Z</time>
      </trkpt>
      <trkpt lat="44.6075" lon="4.32401">
        <ele>495.22</ele>
        <time>2013-11-06T14:33:13Z</time>
      </trkpt>
      <trkpt lat="44.60779" lon="4.32411">
        <ele>495.7</ele>
        <time>2013-11-06T14:33:28Z</time>
      </trkpt>
      <trkpt lat="44.60784" lon="4.32411">
        <ele>495.7</ele>
        <time>2013-11-06T14:33:32Z</time>
      </trkpt>
      <trkpt lat="44.60795" lon="4.32402">
        <ele>495.22</ele>
        <time>2013-11-06T14:33:45Z</time>
      </trkpt>
      <trkpt lat="44.60797" lon="4.324">
        <ele>495.22</ele>
        <time>2013-11-06T14:33:47Z</time>
      </trkpt>
      <trkpt lat="44.60802" lon="4.32381">
        <ele>496.18</ele>
        <time>2013-11-06T14:33:57Z</time>
      </trkpt>
      <trkpt lat="44.60814" lon="4.3235">
        <ele>495.22</ele>
        <time>2013-11-06T14:34:14Z</time>
      </trkpt>
      <trkpt lat="44.60823" lon="4.32313">
        <ele>492.81</ele>
        <time>2013-11-06T14:34:22Z</time>
      </trkpt>
      <trkpt lat="44.60821" lon="4.32307">
        <ele>492.33</ele>
        <time>2013-11-06T14:34:23Z</time>
      </trkpt>
      <trkpt lat="44.60819" lon="4.32302">
        <ele>491.85</ele>
        <time>2013-11-06T14:34:24Z</time>
      </trkpt>
      <trkpt lat="44.60808" lon="4.32281">
        <ele>488.49</ele>
        <time>2013-11-06T14:34:28Z</time>
      </trkpt>
      <trkpt lat="44.60802" lon="4.32271">
        <ele>487.05</ele>
        <time>2013-11-06T14:34:30Z</time>
      </trkpt>
      <trkpt lat="44.60801" lon="4.32261">
        <ele>486.08</ele>
        <time>2013-11-06T14:34:31Z</time>
      </trkpt>
      <trkpt lat="44.60799" lon="4.32254">
        <ele>485.6</ele>
        <time>2013-11-06T14:34:32Z</time>
      </trkpt>
      <trkpt lat="44.60797" lon="4.32248">
        <ele>485.6</ele>
        <time>2013-11-06T14:34:33Z</time>
      </trkpt>
      <trkpt lat="44.60785" lon="4.32235">
        <ele>483.68</ele>
        <time>2013-11-06T14:34:36Z</time>
      </trkpt>
      <trkpt lat="44.60778" lon="4.32217">
        <ele>481.76</ele>
        <time>2013-11-06T14:34:40Z</time>
      </trkpt>
      <trkpt lat="44.60778" lon="4.32213">
        <ele>481.28</ele>
        <time>2013-11-06T14:34:41Z</time>
      </trkpt>
      <trkpt lat="44.60779" lon="4.3221">
        <ele>481.28</ele>
        <time>2013-11-06T14:34:42Z</time>
      </trkpt>
      <trkpt lat="44.60781" lon="4.32208">
        <ele>480.8</ele>
        <time>2013-11-06T14:34:43Z</time>
      </trkpt>
      <trkpt lat="44.60784" lon="4.32205">
        <ele>480.32</ele>
        <time>2013-11-06T14:34:44Z</time>
      </trkpt>
      <trkpt lat="44.6081" lon="4.32183">
        <ele>476.95</ele>
        <time>2013-11-06T14:34:51Z</time>
      </trkpt>
      <trkpt lat="44.60827" lon="4.32161">
        <ele>475.03</ele>
        <time>2013-11-06T14:34:56Z</time>
      </trkpt>
      <trkpt lat="44.60833" lon="4.32153">
        <ele>474.07</ele>
        <time>2013-11-06T14:34:58Z</time>
      </trkpt>
      <trkpt lat="44.60837" lon="4.32148">
        <ele>474.07</ele>
        <time>2013-11-06T14:34:59Z</time>
      </trkpt>
      <trkpt lat="44.60841" lon="4.32144">
        <ele>473.59</ele>
        <time>2013-11-06T14:35:00Z</time>
      </trkpt>
      <trkpt lat="44.60851" lon="4.32138">
        <ele>473.11</ele>
        <time>2013-11-06T14:35:02Z</time>
      </trkpt>
      <trkpt lat="44.60875" lon="4.32124">
        <ele>472.63</ele>
        <time>2013-11-06T14:35:07Z</time>
      </trkpt>
      <trkpt lat="44.6088" lon="4.32123">
        <ele>472.63</ele>
        <time>2013-11-06T14:35:08Z</time>
      </trkpt>
      <trkpt lat="44.60885" lon="4.32123">
        <ele>472.63</ele>
        <time>2013-11-06T14:35:09Z</time>
      </trkpt>
      <trkpt lat="44.60896" lon="4.32125">
        <ele>471.66</ele>
        <time>2013-11-06T14:35:11Z</time>
      </trkpt>
      <trkpt lat="44.60902" lon="4.3213">
        <ele>471.18</ele>
        <time>2013-11-06T14:35:12Z</time>
      </trkpt>
      <trkpt lat="44.60907" lon="4.32135">
        <ele>470.7</ele>
        <time>2013-11-06T14:35:13Z</time>
      </trkpt>
      <trkpt lat="44.60911" lon="4.32141">
        <ele>470.22</ele>
        <time>2013-11-06T14:35:14Z</time>
      </trkpt>
      <trkpt lat="44.60921" lon="4.32157">
        <ele>469.26</ele>
        <time>2013-11-06T14:35:17Z</time>
      </trkpt>
      <trkpt lat="44.60924" lon="4.32164">
        <ele>468.78</ele>
        <time>2013-11-06T14:35:18Z</time>
      </trkpt>
      <trkpt lat="44.60947" lon="4.32198">
        <ele>465.42</ele>
        <time>2013-11-06T14:35:23Z</time>
      </trkpt>
      <trkpt lat="44.60972" lon="4.32233">
        <ele>462.53</ele>
        <time>2013-11-06T14:35:28Z</time>
      </trkpt>
      <trkpt lat="44.60977" lon="4.32241">
        <ele>461.57</ele>
        <time>2013-11-06T14:35:29Z</time>
      </trkpt>
      <trkpt lat="44.60989" lon="4.32263">
        <ele>460.13</ele>
        <time>2013-11-06T14:35:32Z</time>
      </trkpt>
      <trkpt lat="44.60993" lon="4.32269">
        <ele>460.13</ele>
        <time>2013-11-06T14:35:33Z</time>
      </trkpt>
      <trkpt lat="44.60999" lon="4.32282">
        <ele>459.65</ele>
        <time>2013-11-06T14:35:35Z</time>
      </trkpt>
      <trkpt lat="44.61015" lon="4.32316">
        <ele>461.09</ele>
        <time>2013-11-06T14:35:43Z</time>
      </trkpt>
      <trkpt lat="44.61033" lon="4.32331">
        <ele>460.13</ele>
        <time>2013-11-06T14:35:54Z</time>
      </trkpt>
      <trkpt lat="44.61054" lon="4.32329">
        <ele>458.21</ele>
        <time>2013-11-06T14:36:01Z</time>
      </trkpt>
      <trkpt lat="44.61066" lon="4.32334">
        <ele>457.72</ele>
        <time>2013-11-06T14:36:13Z</time>
      </trkpt>
      <trkpt lat="44.61066" lon="4.32334">
        <ele>457.72</ele>
        <time>2013-11-06T14:36:45Z</time>
      </trkpt>
      <trkpt lat="44.61066" lon="4.32334">
        <ele>457.72</ele>
        <time>2013-11-06T14:37:13Z</time>
      </trkpt>
      <trkpt lat="44.61087" lon="4.32336">
        <ele>456.28</ele>
        <time>2013-11-06T14:37:20Z</time>
      </trkpt>
      <trkpt lat="44.61094" lon="4.32336">
        <ele>456.28</ele>
        <time>2013-11-06T14:37:22Z</time>
      </trkpt>
      <trkpt lat="44.61104" lon="4.32339">
        <ele>454.84</ele>
        <time>2013-11-06T14:37:25Z</time>
      </trkpt>
      <trkpt lat="44.61116" lon="4.32343">
        <ele>453.4</ele>
        <time>2013-11-06T14:37:29Z</time>
      </trkpt>
      <trkpt lat="44.61125" lon="4.32341">
        <ele>452.44</ele>
        <time>2013-11-06T14:37:31Z</time>
      </trkpt>
      <trkpt lat="44.61168" lon="4.32357">
        <ele>451.48</ele>
        <time>2013-11-06T14:37:40Z</time>
      </trkpt>
      <trkpt lat="44.61201" lon="4.32386">
        <ele>450.03</ele>
        <time>2013-11-06T14:37:48Z</time>
      </trkpt>
      <trkpt lat="44.61208" lon="4.32395">
        <ele>450.03</ele>
        <time>2013-11-06T14:37:50Z</time>
      </trkpt>
      <trkpt lat="44.61215" lon="4.32402">
        <ele>450.52</ele>
        <time>2013-11-06T14:37:52Z</time>
      </trkpt>
      <trkpt lat="44.61218" lon="4.32406">
        <ele>451</ele>
        <time>2013-11-06T14:37:53Z</time>
      </trkpt>
      <trkpt lat="44.6122" lon="4.3241">
        <ele>451</ele>
        <time>2013-11-06T14:37:54Z</time>
      </trkpt>
      <trkpt lat="44.61231" lon="4.32424">
        <ele>451.48</ele>
        <time>2013-11-06T14:37:59Z</time>
      </trkpt>
      <trkpt lat="44.61234" lon="4.32426">
        <ele>451.48</ele>
        <time>2013-11-06T14:38:00Z</time>
      </trkpt>
      <trkpt lat="44.61267" lon="4.32443">
        <ele>452.92</ele>
        <time>2013-11-06T14:38:13Z</time>
      </trkpt>
      <trkpt lat="44.6129" lon="4.32458">
        <ele>454.36</ele>
        <time>2013-11-06T14:38:28Z</time>
      </trkpt>
      <trkpt lat="44.61292" lon="4.32459">
        <ele>454.84</ele>
        <time>2013-11-06T14:38:29Z</time>
      </trkpt>
      <trkpt lat="44.61295" lon="4.32461">
        <ele>454.84</ele>
        <time>2013-11-06T14:38:31Z</time>
      </trkpt>
      <trkpt lat="44.61312" lon="4.32468">
        <ele>457.24</ele>
        <time>2013-11-06T14:38:45Z</time>
      </trkpt>
      <trkpt lat="44.61331" lon="4.32484">
        <ele>458.69</ele>
        <time>2013-11-06T14:38:58Z</time>
      </trkpt>
      <trkpt lat="44.61335" lon="4.32491">
        <ele>459.65</ele>
        <time>2013-11-06T14:39:07Z</time>
      </trkpt>
      <trkpt lat="44.61336" lon="4.32493">
        <ele>459.65</ele>
        <time>2013-11-06T14:39:08Z</time>
      </trkpt>
      <trkpt lat="44.61341" lon="4.32498">
        <ele>460.13</ele>
        <time>2013-11-06T14:39:11Z</time>
      </trkpt>
      <trkpt lat="44.61347" lon="4.32505">
        <ele>461.57</ele>
        <time>2013-11-06T14:39:15Z</time>
      </trkpt>
      <trkpt lat="44.61357" lon="4.32514">
        <ele>461.57</ele>
        <time>2013-11-06T14:39:22Z</time>
      </trkpt>
      <trkpt lat="44.61368" lon="4.32521">
        <ele>462.53</ele>
        <time>2013-11-06T14:39:29Z</time>
      </trkpt>
      <trkpt lat="44.61385" lon="4.32533">
        <ele>463.97</ele>
        <time>2013-11-06T14:39:39Z</time>
      </trkpt>
      <trkpt lat="44.61409" lon="4.32554">
        <ele>467.34</ele>
        <time>2013-11-06T14:39:51Z</time>
      </trkpt>
      <trkpt lat="44.61432" lon="4.32577">
        <ele>470.22</ele>
        <time>2013-11-06T14:40:03Z</time>
      </trkpt>
      <trkpt lat="44.61441" lon="4.32583">
        <ele>471.18</ele>
        <time>2013-11-06T14:40:07Z</time>
      </trkpt>
      <trkpt lat="44.61464" lon="4.32612">
        <ele>474.55</ele>
        <time>2013-11-06T14:40:21Z</time>
      </trkpt>
      <trkpt lat="44.61475" lon="4.32625">
        <ele>475.03</ele>
        <time>2013-11-06T14:40:34Z</time>
      </trkpt>
      <trkpt lat="44.61478" lon="4.32629">
        <ele>475.51</ele>
        <time>2013-11-06T14:40:38Z</time>
      </trkpt>
      <trkpt lat="44.61495" lon="4.32646">
        <ele>476.47</ele>
        <time>2013-11-06T14:40:49Z</time>
      </trkpt>
      <trkpt lat="44.61511" lon="4.32666">
        <ele>478.39</ele>
        <time>2013-11-06T14:41:02Z</time>
      </trkpt>
      <trkpt lat="44.61524" lon="4.32683">
        <ele>480.32</ele>
        <time>2013-11-06T14:41:14Z</time>
      </trkpt>
      <trkpt lat="44.61543" lon="4.32703">
        <ele>482.24</ele>
        <time>2013-11-06T14:41:25Z</time>
      </trkpt>
      <trkpt lat="44.61561" lon="4.32725">
        <ele>484.16</ele>
        <time>2013-11-06T14:41:39Z</time>
      </trkpt>
      <trkpt lat="44.61579" lon="4.32746">
        <ele>486.08</ele>
        <time>2013-11-06T14:41:50Z</time>
      </trkpt>
      <trkpt lat="44.61588" lon="4.32753">
        <ele>487.53</ele>
        <time>2013-11-06T14:41:55Z</time>
      </trkpt>
      <trkpt lat="44.61606" lon="4.32762">
        <ele>488.01</ele>
        <time>2013-11-06T14:42:04Z</time>
      </trkpt>
      <trkpt lat="44.61628" lon="4.32783">
        <ele>490.41</ele>
        <time>2013-11-06T14:42:16Z</time>
      </trkpt>
      <trkpt lat="44.61644" lon="4.32803">
        <ele>491.85</ele>
        <time>2013-11-06T14:42:26Z</time>
      </trkpt>
      <trkpt lat="44.61664" lon="4.32821">
        <ele>492.81</ele>
        <time>2013-11-06T14:42:38Z</time>
      </trkpt>
      <trkpt lat="44.61678" lon="4.32837">
        <ele>494.74</ele>
        <time>2013-11-06T14:42:48Z</time>
      </trkpt>
      <trkpt lat="44.61695" lon="4.32856">
        <ele>498.1</ele>
        <time>2013-11-06T14:42:59Z</time>
      </trkpt>
      <trkpt lat="44.61714" lon="4.3287">
        <ele>500.02</ele>
        <time>2013-11-06T14:43:09Z</time>
      </trkpt>
      <trkpt lat="44.61741" lon="4.32884">
        <ele>501.46</ele>
        <time>2013-11-06T14:43:24Z</time>
      </trkpt>
      <trkpt lat="44.61759" lon="4.329">
        <ele>504.35</ele>
        <time>2013-11-06T14:43:35Z</time>
      </trkpt>
      <trkpt lat="44.61761" lon="4.32902">
        <ele>504.35</ele>
        <time>2013-11-06T14:43:36Z</time>
      </trkpt>
      <trkpt lat="44.61789" lon="4.3292">
        <ele>506.75</ele>
        <time>2013-11-06T14:43:51Z</time>
      </trkpt>
      <trkpt lat="44.6181" lon="4.32943">
        <ele>509.16</ele>
        <time>2013-11-06T14:44:03Z</time>
      </trkpt>
      <trkpt lat="44.61812" lon="4.32945">
        <ele>509.16</ele>
        <time>2013-11-06T14:44:04Z</time>
      </trkpt>
      <trkpt lat="44.61824" lon="4.32957">
        <ele>510.6</ele>
        <time>2013-11-06T14:44:11Z</time>
      </trkpt>
      <trkpt lat="44.61842" lon="4.3298">
        <ele>512.04</ele>
        <time>2013-11-06T14:44:23Z</time>
      </trkpt>
      <trkpt lat="44.61847" lon="4.32998">
        <ele>512.04</ele>
        <time>2013-11-06T14:44:31Z</time>
      </trkpt>
      <trkpt lat="44.6185" lon="4.33006">
        <ele>512.04</ele>
        <time>2013-11-06T14:44:35Z</time>
      </trkpt>
      <trkpt lat="44.61856" lon="4.33006">
        <ele>512.04</ele>
        <time>2013-11-06T14:44:41Z</time>
      </trkpt>
      <trkpt lat="44.61859" lon="4.3301">
        <ele>511.56</ele>
        <time>2013-11-06T14:44:46Z</time>
      </trkpt>
      <trkpt lat="44.61861" lon="4.33009">
        <ele>512.04</ele>
        <time>2013-11-06T14:44:59Z</time>
      </trkpt>
      <trkpt lat="44.61859" lon="4.33011">
        <ele>512.04</ele>
        <time>2013-11-06T14:45:28Z</time>
      </trkpt>
      <trkpt lat="44.61855" lon="4.33022">
        <ele>511.56</ele>
        <time>2013-11-06T14:45:36Z</time>
      </trkpt>
      <trkpt lat="44.61851" lon="4.33034">
        <ele>511.08</ele>
        <time>2013-11-06T14:45:50Z</time>
      </trkpt>
      <trkpt lat="44.61852" lon="4.33033">
        <ele>510.6</ele>
        <time>2013-11-06T14:46:19Z</time>
      </trkpt>
      <trkpt lat="44.61859" lon="4.33031">
        <ele>510.6</ele>
        <time>2013-11-06T14:46:29Z</time>
      </trkpt>
      <trkpt lat="44.61864" lon="4.33022">
        <ele>511.56</ele>
        <time>2013-11-06T14:46:41Z</time>
      </trkpt>
      <trkpt lat="44.61866" lon="4.33018">
        <ele>511.56</ele>
        <time>2013-11-06T14:46:52Z</time>
      </trkpt>
      <trkpt lat="44.61866" lon="4.33018">
        <ele>511.08</ele>
        <time>2013-11-06T14:47:16Z</time>
      </trkpt>
      <trkpt lat="44.61866" lon="4.33018">
        <ele>511.08</ele>
        <time>2013-11-06T14:47:40Z</time>
      </trkpt>
      <trkpt lat="44.61866" lon="4.33018">
        <ele>511.08</ele>
        <time>2013-11-06T14:47:59Z</time>
      </trkpt>
      <trkpt lat="44.61866" lon="4.33018">
        <ele>510.6</ele>
        <time>2013-11-06T14:48:29Z</time>
      </trkpt>
      <trkpt lat="44.61866" lon="4.33018">
        <ele>510.6</ele>
        <time>2013-11-06T14:48:45Z</time>
      </trkpt>
      <trkpt lat="44.61868" lon="4.3302">
        <ele>510.6</ele>
        <time>2013-11-06T14:48:47Z</time>
      </trkpt>
      <trkpt lat="44.61886" lon="4.33039">
        <ele>509.16</ele>
        <time>2013-11-06T14:48:58Z</time>
      </trkpt>
      <trkpt lat="44.61914" lon="4.33067">
        <ele>507.23</ele>
        <time>2013-11-06T14:49:08Z</time>
      </trkpt>
      <trkpt lat="44.6193" lon="4.33095">
        <ele>505.79</ele>
        <time>2013-11-06T14:49:17Z</time>
      </trkpt>
      <trkpt lat="44.61953" lon="4.33125">
        <ele>504.35</ele>
        <time>2013-11-06T14:49:28Z</time>
      </trkpt>
      <trkpt lat="44.61965" lon="4.33134">
        <ele>503.39</ele>
        <time>2013-11-06T14:49:34Z</time>
      </trkpt>
      <trkpt lat="44.61963" lon="4.33138">
        <ele>502.91</ele>
        <time>2013-11-06T14:49:40Z</time>
      </trkpt>
      <trkpt lat="44.61941" lon="4.33124">
        <ele>500.5</ele>
        <time>2013-11-06T14:49:48Z</time>
      </trkpt>
      <trkpt lat="44.61919" lon="4.33121">
        <ele>499.54</ele>
        <time>2013-11-06T14:50:00Z</time>
      </trkpt>
      <trkpt lat="44.61909" lon="4.33128">
        <ele>498.58</ele>
        <time>2013-11-06T14:50:14Z</time>
      </trkpt>
      <trkpt lat="44.61909" lon="4.33128">
        <ele>498.58</ele>
        <time>2013-11-06T14:50:35Z</time>
      </trkpt>
      <trkpt lat="44.61915" lon="4.33134">
        <ele>499.06</ele>
        <time>2013-11-06T14:50:43Z</time>
      </trkpt>
      <trkpt lat="44.61916" lon="4.33134">
        <ele>499.06</ele>
        <time>2013-11-06T14:50:44Z</time>
      </trkpt>
      <trkpt lat="44.61917" lon="4.33131">
        <ele>499.06</ele>
        <time>2013-11-06T14:50:47Z</time>
      </trkpt>
      <trkpt lat="44.61915" lon="4.33128">
        <ele>499.06</ele>
        <time>2013-11-06T14:51:03Z</time>
      </trkpt>
      <trkpt lat="44.61914" lon="4.33129">
        <ele>499.54</ele>
        <time>2013-11-06T14:51:05Z</time>
      </trkpt>
      <trkpt lat="44.61908" lon="4.33138">
        <ele>499.06</ele>
        <time>2013-11-06T14:51:09Z</time>
      </trkpt>
      <trkpt lat="44.61911" lon="4.33146">
        <ele>496.18</ele>
        <time>2013-11-06T14:51:18Z</time>
      </trkpt>
      <trkpt lat="44.61913" lon="4.33145">
        <ele>495.7</ele>
        <time>2013-11-06T14:51:20Z</time>
      </trkpt>
      <trkpt lat="44.61929" lon="4.33154">
        <ele>493.29</ele>
        <time>2013-11-06T14:51:32Z</time>
      </trkpt>
      <trkpt lat="44.61934" lon="4.3316">
        <ele>492.33</ele>
        <time>2013-11-06T14:51:36Z</time>
      </trkpt>
      <trkpt lat="44.6194" lon="4.33165">
        <ele>491.37</ele>
        <time>2013-11-06T14:51:40Z</time>
      </trkpt>
      <trkpt lat="44.61945" lon="4.33168">
        <ele>490.41</ele>
        <time>2013-11-06T14:51:44Z</time>
      </trkpt>
      <trkpt lat="44.61945" lon="4.33174">
        <ele>488.49</ele>
        <time>2013-11-06T14:51:49Z</time>
      </trkpt>
      <trkpt lat="44.61944" lon="4.33174">
        <ele>488.49</ele>
        <time>2013-11-06T14:51:52Z</time>
      </trkpt>
      <trkpt lat="44.61937" lon="4.33176">
        <ele>486.08</ele>
        <time>2013-11-06T14:52:00Z</time>
      </trkpt>
      <trkpt lat="44.61938" lon="4.33182">
        <ele>484.16</ele>
        <time>2013-11-06T14:52:08Z</time>
      </trkpt>
      <trkpt lat="44.61949" lon="4.332">
        <ele>480.8</ele>
        <time>2013-11-06T14:52:16Z</time>
      </trkpt>
      <trkpt lat="44.61955" lon="4.33212">
        <ele>479.35</ele>
        <time>2013-11-06T14:52:21Z</time>
      </trkpt>
      <trkpt lat="44.61957" lon="4.33216">
        <ele>478.39</ele>
        <time>2013-11-06T14:52:23Z</time>
      </trkpt>
      <trkpt lat="44.6196" lon="4.33224">
        <ele>477.43</ele>
        <time>2013-11-06T14:52:26Z</time>
      </trkpt>
      <trkpt lat="44.61975" lon="4.33246">
        <ele>474.55</ele>
        <time>2013-11-06T14:52:36Z</time>
      </trkpt>
      <trkpt lat="44.61983" lon="4.33257">
        <ele>472.63</ele>
        <time>2013-11-06T14:52:42Z</time>
      </trkpt>
      <trkpt lat="44.61989" lon="4.3326">
        <ele>471.18</ele>
        <time>2013-11-06T14:52:47Z</time>
      </trkpt>
      <trkpt lat="44.61992" lon="4.33264">
        <ele>470.7</ele>
        <time>2013-11-06T14:53:00Z</time>
      </trkpt>
      <trkpt lat="44.61994" lon="4.33266">
        <ele>470.7</ele>
        <time>2013-11-06T14:53:01Z</time>
      </trkpt>
      <trkpt lat="44.62006" lon="4.33274">
        <ele>468.3</ele>
        <time>2013-11-06T14:53:07Z</time>
      </trkpt>
      <trkpt lat="44.62009" lon="4.33276">
        <ele>467.82</ele>
        <time>2013-11-06T14:53:09Z</time>
      </trkpt>
      <trkpt lat="44.62011" lon="4.33279">
        <ele>467.34</ele>
        <time>2013-11-06T14:53:11Z</time>
      </trkpt>
      <trkpt lat="44.62013" lon="4.33282">
        <ele>466.38</ele>
        <time>2013-11-06T14:53:22Z</time>
      </trkpt>
      <trkpt lat="44.62011" lon="4.33282">
        <ele>465.42</ele>
        <time>2013-11-06T14:53:40Z</time>
      </trkpt>
      <trkpt lat="44.62009" lon="4.33281">
        <ele>465.42</ele>
        <time>2013-11-06T14:53:51Z</time>
      </trkpt>
      <trkpt lat="44.62011" lon="4.33282">
        <ele>464.45</ele>
        <time>2013-11-06T14:53:54Z</time>
      </trkpt>
      <trkpt lat="44.62014" lon="4.33286">
        <ele>464.45</ele>
        <time>2013-11-06T14:53:56Z</time>
      </trkpt>
      <trkpt lat="44.62032" lon="4.33288">
        <ele>461.09</ele>
        <time>2013-11-06T14:54:07Z</time>
      </trkpt>
      <trkpt lat="44.62038" lon="4.33292">
        <ele>458.69</ele>
        <time>2013-11-06T14:54:18Z</time>
      </trkpt>
      <trkpt lat="44.62039" lon="4.33294">
        <ele>458.21</ele>
        <time>2013-11-06T14:54:20Z</time>
      </trkpt>
      <trkpt lat="44.62037" lon="4.33301">
        <ele>457.24</ele>
        <time>2013-11-06T14:54:34Z</time>
      </trkpt>
      <trkpt lat="44.62039" lon="4.33304">
        <ele>457.24</ele>
        <time>2013-11-06T14:54:49Z</time>
      </trkpt>
      <trkpt lat="44.62038" lon="4.33306">
        <ele>457.72</ele>
        <time>2013-11-06T14:55:04Z</time>
      </trkpt>
      <trkpt lat="44.62036" lon="4.33312">
        <ele>458.69</ele>
        <time>2013-11-06T14:55:17Z</time>
      </trkpt>
      <trkpt lat="44.62036" lon="4.33312">
        <ele>459.17</ele>
        <time>2013-11-06T14:55:40Z</time>
      </trkpt>
      <trkpt lat="44.62037" lon="4.33311">
        <ele>459.65</ele>
        <time>2013-11-06T14:56:06Z</time>
      </trkpt>
      <trkpt lat="44.62039" lon="4.33311">
        <ele>459.17</ele>
        <time>2013-11-06T14:56:19Z</time>
      </trkpt>
      <trkpt lat="44.62039" lon="4.33311">
        <ele>459.65</ele>
        <time>2013-11-06T14:56:43Z</time>
      </trkpt>
      <trkpt lat="44.62037" lon="4.33313">
        <ele>459.65</ele>
        <time>2013-11-06T14:56:54Z</time>
      </trkpt>
      <trkpt lat="44.62038" lon="4.33315">
        <ele>460.61</ele>
        <time>2013-11-06T14:57:07Z</time>
      </trkpt>
      <trkpt lat="44.6204" lon="4.33314">
        <ele>461.09</ele>
        <time>2013-11-06T14:57:31Z</time>
      </trkpt>
      <trkpt lat="44.62044" lon="4.33313">
        <ele>461.57</ele>
        <time>2013-11-06T14:57:54Z</time>
      </trkpt>
      <trkpt lat="44.62044" lon="4.33314">
        <ele>461.57</ele>
        <time>2013-11-06T14:57:56Z</time>
      </trkpt>
      <trkpt lat="44.62043" lon="4.33317">
        <ele>461.57</ele>
        <time>2013-11-06T14:57:59Z</time>
      </trkpt>
      <trkpt lat="44.62024" lon="4.33326">
        <ele>461.09</ele>
        <time>2013-11-06T14:58:13Z</time>
      </trkpt>
      <trkpt lat="44.61998" lon="4.33339">
        <ele>460.13</ele>
        <time>2013-11-06T14:58:24Z</time>
      </trkpt>
      <trkpt lat="44.61993" lon="4.33343">
        <ele>459.65</ele>
        <time>2013-11-06T14:58:29Z</time>
      </trkpt>
      <trkpt lat="44.61986" lon="4.33338">
        <ele>456.76</ele>
        <time>2013-11-06T14:58:38Z</time>
      </trkpt>
      <trkpt lat="44.61977" lon="4.33341">
        <ele>456.28</ele>
        <time>2013-11-06T14:58:41Z</time>
      </trkpt>
      <trkpt lat="44.61956" lon="4.33348">
        <ele>452.92</ele>
        <time>2013-11-06T14:58:46Z</time>
      </trkpt>
      <trkpt lat="44.61946" lon="4.33352">
        <ele>452.44</ele>
        <time>2013-11-06T14:58:48Z</time>
      </trkpt>
      <trkpt lat="44.61942" lon="4.33355">
        <ele>451.96</ele>
        <time>2013-11-06T14:58:49Z</time>
      </trkpt>
      <trkpt lat="44.61924" lon="4.3337">
        <ele>450.52</ele>
        <time>2013-11-06T14:58:53Z</time>
      </trkpt>
      <trkpt lat="44.61896" lon="4.33388">
        <ele>449.55</ele>
        <time>2013-11-06T14:58:59Z</time>
      </trkpt>
      <trkpt lat="44.61892" lon="4.33392">
        <ele>449.07</ele>
        <time>2013-11-06T14:59:00Z</time>
      </trkpt>
      <trkpt lat="44.61887" lon="4.33396">
        <ele>448.59</ele>
        <time>2013-11-06T14:59:01Z</time>
      </trkpt>
      <trkpt lat="44.61883" lon="4.33398">
        <ele>448.11</ele>
        <time>2013-11-06T14:59:02Z</time>
      </trkpt>
      <trkpt lat="44.61878" lon="4.334">
        <ele>447.15</ele>
        <time>2013-11-06T14:59:03Z</time>
      </trkpt>
      <trkpt lat="44.61863" lon="4.33409">
        <ele>444.75</ele>
        <time>2013-11-06T14:59:06Z</time>
      </trkpt>
      <trkpt lat="44.61853" lon="4.33416">
        <ele>441.38</ele>
        <time>2013-11-06T14:59:08Z</time>
      </trkpt>
      <trkpt lat="44.61849" lon="4.33423">
        <ele>440.42</ele>
        <time>2013-11-06T14:59:09Z</time>
      </trkpt>
      <trkpt lat="44.61843" lon="4.33426">
        <ele>439.46</ele>
        <time>2013-11-06T14:59:10Z</time>
      </trkpt>
      <trkpt lat="44.61833" lon="4.33435">
        <ele>437.06</ele>
        <time>2013-11-06T14:59:12Z</time>
      </trkpt>
      <trkpt lat="44.61826" lon="4.33437">
        <ele>436.1</ele>
        <time>2013-11-06T14:59:13Z</time>
      </trkpt>
      <trkpt lat="44.61812" lon="4.33449">
        <ele>433.21</ele>
        <time>2013-11-06T14:59:17Z</time>
      </trkpt>
      <trkpt lat="44.61804" lon="4.33457">
        <ele>431.29</ele>
        <time>2013-11-06T14:59:28Z</time>
      </trkpt>
      <trkpt lat="44.61801" lon="4.33458">
        <ele>431.29</ele>
        <time>2013-11-06T14:59:57Z</time>
      </trkpt>
      <trkpt lat="44.61799" lon="4.33459">
        <ele>431.29</ele>
        <time>2013-11-06T14:59:58Z</time>
      </trkpt>
      <trkpt lat="44.61797" lon="4.33457">
        <ele>430.81</ele>
        <time>2013-11-06T14:59:59Z</time>
      </trkpt>
      <trkpt lat="44.61796" lon="4.33454">
        <ele>431.29</ele>
        <time>2013-11-06T15:00:00Z</time>
      </trkpt>
      <trkpt lat="44.61796" lon="4.33451">
        <ele>431.29</ele>
        <time>2013-11-06T15:00:01Z</time>
      </trkpt>
      <trkpt lat="44.61792" lon="4.33442">
        <ele>431.77</ele>
        <time>2013-11-06T15:00:05Z</time>
      </trkpt>
      <trkpt lat="44.61789" lon="4.33441">
        <ele>431.77</ele>
        <time>2013-11-06T15:00:06Z</time>
      </trkpt>
      <trkpt lat="44.61757" lon="4.33429">
        <ele>433.69</ele>
        <time>2013-11-06T15:00:17Z</time>
      </trkpt>
      <trkpt lat="44.61713" lon="4.33429">
        <ele>435.61</ele>
        <time>2013-11-06T15:00:30Z</time>
      </trkpt>
      <trkpt lat="44.61672" lon="4.33435">
        <ele>437.06</ele>
        <time>2013-11-06T15:00:42Z</time>
      </trkpt>
      <trkpt lat="44.61633" lon="4.33456">
        <ele>439.46</ele>
        <time>2013-11-06T15:00:55Z</time>
      </trkpt>
      <trkpt lat="44.61605" lon="4.33454">
        <ele>440.9</ele>
        <time>2013-11-06T15:01:05Z</time>
      </trkpt>
      <trkpt lat="44.61562" lon="4.33436">
        <ele>442.82</ele>
        <time>2013-11-06T15:01:20Z</time>
      </trkpt>
      <trkpt lat="44.61511" lon="4.33408">
        <ele>444.75</ele>
        <time>2013-11-06T15:01:34Z</time>
      </trkpt>
      <trkpt lat="44.61469" lon="4.33365">
        <ele>446.67</ele>
        <time>2013-11-06T15:01:48Z</time>
      </trkpt>
      <trkpt lat="44.61432" lon="4.33321">
        <ele>448.11</ele>
        <time>2013-11-06T15:02:01Z</time>
      </trkpt>
      <trkpt lat="44.61401" lon="4.33298">
        <ele>449.55</ele>
        <time>2013-11-06T15:02:14Z</time>
      </trkpt>
      <trkpt lat="44.61374" lon="4.33307">
        <ele>451</ele>
        <time>2013-11-06T15:02:26Z</time>
      </trkpt>
      <trkpt lat="44.6137" lon="4.33311">
        <ele>451.48</ele>
        <time>2013-11-06T15:02:28Z</time>
      </trkpt>
      <trkpt lat="44.61368" lon="4.33314">
        <ele>451.48</ele>
        <time>2013-11-06T15:02:29Z</time>
      </trkpt>
      <trkpt lat="44.61338" lon="4.33334">
        <ele>452.44</ele>
        <time>2013-11-06T15:02:40Z</time>
      </trkpt>
      <trkpt lat="44.61293" lon="4.3337">
        <ele>454.84</ele>
        <time>2013-11-06T15:02:55Z</time>
      </trkpt>
      <trkpt lat="44.61259" lon="4.33405">
        <ele>455.8</ele>
        <time>2013-11-06T15:03:08Z</time>
      </trkpt>
      <trkpt lat="44.61223" lon="4.33429">
        <ele>457.72</ele>
        <time>2013-11-06T15:03:21Z</time>
      </trkpt>
      <trkpt lat="44.612" lon="4.33398">
        <ele>459.65</ele>
        <time>2013-11-06T15:03:33Z</time>
      </trkpt>
      <trkpt lat="44.61182" lon="4.33352">
        <ele>460.61</ele>
        <time>2013-11-06T15:03:46Z</time>
      </trkpt>
      <trkpt lat="44.61173" lon="4.3331">
        <ele>461.09</ele>
        <time>2013-11-06T15:04:00Z</time>
      </trkpt>
      <trkpt lat="44.61171" lon="4.33295">
        <ele>462.05</ele>
        <time>2013-11-06T15:04:10Z</time>
      </trkpt>
      <trkpt lat="44.6117" lon="4.33293">
        <ele>462.53</ele>
        <time>2013-11-06T15:04:11Z</time>
      </trkpt>
      <trkpt lat="44.61141" lon="4.33264">
        <ele>461.09</ele>
        <time>2013-11-06T15:04:23Z</time>
      </trkpt>
      <trkpt lat="44.61137" lon="4.3326">
        <ele>461.09</ele>
        <time>2013-11-06T15:04:24Z</time>
      </trkpt>
      <trkpt lat="44.61114" lon="4.33237">
        <ele>459.65</ele>
        <time>2013-11-06T15:04:30Z</time>
      </trkpt>
      <trkpt lat="44.6111" lon="4.33235">
        <ele>459.65</ele>
        <time>2013-11-06T15:04:31Z</time>
      </trkpt>
      <trkpt lat="44.61106" lon="4.33235">
        <ele>459.17</ele>
        <time>2013-11-06T15:04:32Z</time>
      </trkpt>
      <trkpt lat="44.61101" lon="4.33238">
        <ele>458.69</ele>
        <time>2013-11-06T15:04:33Z</time>
      </trkpt>
      <trkpt lat="44.61097" lon="4.33242">
        <ele>458.69</ele>
        <time>2013-11-06T15:04:34Z</time>
      </trkpt>
      <trkpt lat="44.61094" lon="4.33246">
        <ele>458.21</ele>
        <time>2013-11-06T15:04:35Z</time>
      </trkpt>
      <trkpt lat="44.6109" lon="4.33252">
        <ele>458.21</ele>
        <time>2013-11-06T15:04:36Z</time>
      </trkpt>
      <trkpt lat="44.61082" lon="4.33266">
        <ele>456.76</ele>
        <time>2013-11-06T15:04:38Z</time>
      </trkpt>
      <trkpt lat="44.61077" lon="4.33274">
        <ele>456.28</ele>
        <time>2013-11-06T15:04:39Z</time>
      </trkpt>
      <trkpt lat="44.61072" lon="4.33281">
        <ele>455.8</ele>
        <time>2013-11-06T15:04:40Z</time>
      </trkpt>
      <trkpt lat="44.61065" lon="4.33287">
        <ele>454.84</ele>
        <time>2013-11-06T15:04:41Z</time>
      </trkpt>
      <trkpt lat="44.61057" lon="4.33293">
        <ele>454.36</ele>
        <time>2013-11-06T15:04:42Z</time>
      </trkpt>
      <trkpt lat="44.61048" lon="4.33298">
        <ele>453.88</ele>
        <time>2013-11-06T15:04:43Z</time>
      </trkpt>
      <trkpt lat="44.61014" lon="4.33321">
        <ele>451.48</ele>
        <time>2013-11-06T15:04:47Z</time>
      </trkpt>
      <trkpt lat="44.61004" lon="4.33326">
        <ele>451</ele>
        <time>2013-11-06T15:04:48Z</time>
      </trkpt>
      <trkpt lat="44.60967" lon="4.33339">
        <ele>449.55</ele>
        <time>2013-11-06T15:04:52Z</time>
      </trkpt>
      <trkpt lat="44.6095" lon="4.33344">
        <ele>447.63</ele>
        <time>2013-11-06T15:04:55Z</time>
      </trkpt>
      <trkpt lat="44.60945" lon="4.33343">
        <ele>447.15</ele>
        <time>2013-11-06T15:04:56Z</time>
      </trkpt>
      <trkpt lat="44.60942" lon="4.33338">
        <ele>447.15</ele>
        <time>2013-11-06T15:04:57Z</time>
      </trkpt>
      <trkpt lat="44.60939" lon="4.33333">
        <ele>447.63</ele>
        <time>2013-11-06T15:04:58Z</time>
      </trkpt>
      <trkpt lat="44.60938" lon="4.33328">
        <ele>447.15</ele>
        <time>2013-11-06T15:04:59Z</time>
      </trkpt>
      <trkpt lat="44.60936" lon="4.33322">
        <ele>447.15</ele>
        <time>2013-11-06T15:05:00Z</time>
      </trkpt>
      <trkpt lat="44.6093" lon="4.33301">
        <ele>446.67</ele>
        <time>2013-11-06T15:05:04Z</time>
      </trkpt>
      <trkpt lat="44.60929" lon="4.33295">
        <ele>447.15</ele>
        <time>2013-11-06T15:05:05Z</time>
      </trkpt>
      <trkpt lat="44.60928" lon="4.3329">
        <ele>447.15</ele>
        <time>2013-11-06T15:05:06Z</time>
      </trkpt>
      <trkpt lat="44.60928" lon="4.33284">
        <ele>446.67</ele>
        <time>2013-11-06T15:05:07Z</time>
      </trkpt>
      <trkpt lat="44.60929" lon="4.33278">
        <ele>447.15</ele>
        <time>2013-11-06T15:05:08Z</time>
      </trkpt>
      <trkpt lat="44.60929" lon="4.33271">
        <ele>447.15</ele>
        <time>2013-11-06T15:05:09Z</time>
      </trkpt>
      <trkpt lat="44.6093" lon="4.33238">
        <ele>447.15</ele>
        <time>2013-11-06T15:05:14Z</time>
      </trkpt>
      <trkpt lat="44.60931" lon="4.33219">
        <ele>447.15</ele>
        <time>2013-11-06T15:05:17Z</time>
      </trkpt>
      <trkpt lat="44.6093" lon="4.33214">
        <ele>447.15</ele>
        <time>2013-11-06T15:05:18Z</time>
      </trkpt>
      <trkpt lat="44.60928" lon="4.33209">
        <ele>446.67</ele>
        <time>2013-11-06T15:05:19Z</time>
      </trkpt>
      <trkpt lat="44.60926" lon="4.33206">
        <ele>446.19</ele>
        <time>2013-11-06T15:05:20Z</time>
      </trkpt>
      <trkpt lat="44.60922" lon="4.33204">
        <ele>446.67</ele>
        <time>2013-11-06T15:05:21Z</time>
      </trkpt>
      <trkpt lat="44.60917" lon="4.33203">
        <ele>446.19</ele>
        <time>2013-11-06T15:05:22Z</time>
      </trkpt>
      <trkpt lat="44.60913" lon="4.33201">
        <ele>446.19</ele>
        <time>2013-11-06T15:05:23Z</time>
      </trkpt>
      <trkpt lat="44.60909" lon="4.332">
        <ele>446.19</ele>
        <time>2013-11-06T15:05:24Z</time>
      </trkpt>
      <trkpt lat="44.60905" lon="4.33198">
        <ele>446.19</ele>
        <time>2013-11-06T15:05:25Z</time>
      </trkpt>
      <trkpt lat="44.60901" lon="4.33194">
        <ele>446.19</ele>
        <time>2013-11-06T15:05:26Z</time>
      </trkpt>
      <trkpt lat="44.60898" lon="4.3319">
        <ele>446.19</ele>
        <time>2013-11-06T15:05:27Z</time>
      </trkpt>
      <trkpt lat="44.60872" lon="4.33155">
        <ele>445.71</ele>
        <time>2013-11-06T15:05:36Z</time>
      </trkpt>
      <trkpt lat="44.60814" lon="4.3311">
        <ele>445.23</ele>
        <time>2013-11-06T15:05:50Z</time>
      </trkpt>
      <trkpt lat="44.60783" lon="4.33084">
        <ele>444.75</ele>
        <time>2013-11-06T15:05:58Z</time>
      </trkpt>
      <trkpt lat="44.60779" lon="4.3308">
        <ele>444.27</ele>
        <time>2013-11-06T15:05:59Z</time>
      </trkpt>
      <trkpt lat="44.60772" lon="4.33071">
        <ele>444.27</ele>
        <time>2013-11-06T15:06:01Z</time>
      </trkpt>
      <trkpt lat="44.60768" lon="4.33068">
        <ele>444.27</ele>
        <time>2013-11-06T15:06:02Z</time>
      </trkpt>
      <trkpt lat="44.60761" lon="4.33061">
        <ele>444.27</ele>
        <time>2013-11-06T15:06:04Z</time>
      </trkpt>
      <trkpt lat="44.60757" lon="4.33058">
        <ele>443.79</ele>
        <time>2013-11-06T15:06:05Z</time>
      </trkpt>
      <trkpt lat="44.60717" lon="4.33027">
        <ele>444.27</ele>
        <time>2013-11-06T15:06:18Z</time>
      </trkpt>
      <trkpt lat="44.60684" lon="4.33017">
        <ele>444.27</ele>
        <time>2013-11-06T15:06:30Z</time>
      </trkpt>
      <trkpt lat="44.60655" lon="4.33009">
        <ele>445.71</ele>
        <time>2013-11-06T15:06:43Z</time>
      </trkpt>
      <trkpt lat="44.6065" lon="4.33015">
        <ele>445.71</ele>
        <time>2013-11-06T15:06:47Z</time>
      </trkpt>
      <trkpt lat="44.6064" lon="4.33051">
        <ele>444.27</ele>
        <time>2013-11-06T15:06:55Z</time>
      </trkpt>
      <trkpt lat="44.60638" lon="4.33062">
        <ele>443.31</ele>
        <time>2013-11-06T15:06:57Z</time>
      </trkpt>
      <trkpt lat="44.6063" lon="4.33096">
        <ele>440.9</ele>
        <time>2013-11-06T15:07:03Z</time>
      </trkpt>
      <trkpt lat="44.60614" lon="4.33145">
        <ele>438.98</ele>
        <time>2013-11-06T15:07:15Z</time>
      </trkpt>
      <trkpt lat="44.60609" lon="4.33162">
        <ele>438.02</ele>
        <time>2013-11-06T15:07:19Z</time>
      </trkpt>
      <trkpt lat="44.60624" lon="4.33189">
        <ele>437.54</ele>
        <time>2013-11-06T15:07:27Z</time>
      </trkpt>
      <trkpt lat="44.60623" lon="4.33192">
        <ele>437.54</ele>
        <time>2013-11-06T15:07:28Z</time>
      </trkpt>
      <trkpt lat="44.60604" lon="4.33256">
        <ele>436.1</ele>
        <time>2013-11-06T15:07:42Z</time>
      </trkpt>
      <trkpt lat="44.60587" lon="4.3331">
        <ele>435.13</ele>
        <time>2013-11-06T15:07:54Z</time>
      </trkpt>
      <trkpt lat="44.60572" lon="4.33333">
        <ele>434.65</ele>
        <time>2013-11-06T15:08:03Z</time>
      </trkpt>
      <trkpt lat="44.60562" lon="4.33324">
        <ele>434.65</ele>
        <time>2013-11-06T15:08:09Z</time>
      </trkpt>
      <trkpt lat="44.60554" lon="4.33318">
        <ele>434.17</ele>
        <time>2013-11-06T15:08:21Z</time>
      </trkpt>
      <trkpt lat="44.60554" lon="4.33318">
        <ele>433.69</ele>
        <time>2013-11-06T15:08:32Z</time>
      </trkpt>
      <trkpt lat="44.60548" lon="4.33316">
        <ele>433.69</ele>
        <time>2013-11-06T15:08:37Z</time>
      </trkpt>
      <trkpt lat="44.60544" lon="4.33323">
        <ele>433.69</ele>
        <time>2013-11-06T15:08:41Z</time>
      </trkpt>
      <trkpt lat="44.60525" lon="4.33334">
        <ele>435.61</ele>
        <time>2013-11-06T15:08:54Z</time>
      </trkpt>
      <trkpt lat="44.60516" lon="4.33339">
        <ele>436.58</ele>
        <time>2013-11-06T15:08:59Z</time>
      </trkpt>
      <trkpt lat="44.605" lon="4.3336">
        <ele>438.98</ele>
        <time>2013-11-06T15:09:13Z</time>
      </trkpt>
      <trkpt lat="44.60477" lon="4.33386">
        <ele>441.38</ele>
        <time>2013-11-06T15:09:28Z</time>
      </trkpt>
      <trkpt lat="44.60466" lon="4.33399">
        <ele>441.86</ele>
        <time>2013-11-06T15:09:36Z</time>
      </trkpt>
      <trkpt lat="44.60464" lon="4.33404">
        <ele>441.86</ele>
        <time>2013-11-06T15:09:39Z</time>
      </trkpt>
      <trkpt lat="44.6046" lon="4.33407">
        <ele>442.34</ele>
        <time>2013-11-06T15:09:43Z</time>
      </trkpt>
      <trkpt lat="44.60455" lon="4.33418">
        <ele>443.79</ele>
        <time>2013-11-06T15:09:51Z</time>
      </trkpt>
      <trkpt lat="44.60443" lon="4.33428">
        <ele>446.19</ele>
        <time>2013-11-06T15:10:07Z</time>
      </trkpt>
      <trkpt lat="44.60439" lon="4.33432">
        <ele>446.67</ele>
        <time>2013-11-06T15:10:11Z</time>
      </trkpt>
      <trkpt lat="44.60418" lon="4.33449">
        <ele>449.07</ele>
        <time>2013-11-06T15:10:27Z</time>
      </trkpt>
      <trkpt lat="44.60402" lon="4.33461">
        <ele>451</ele>
        <time>2013-11-06T15:10:41Z</time>
      </trkpt>
      <trkpt lat="44.60387" lon="4.33475">
        <ele>452.44</ele>
        <time>2013-11-06T15:10:55Z</time>
      </trkpt>
      <trkpt lat="44.6038" lon="4.3348">
        <ele>452.92</ele>
        <time>2013-11-06T15:11:00Z</time>
      </trkpt>
      <trkpt lat="44.60366" lon="4.335">
        <ele>453.88</ele>
        <time>2013-11-06T15:11:15Z</time>
      </trkpt>
      <trkpt lat="44.60362" lon="4.33504">
        <ele>453.88</ele>
        <time>2013-11-06T15:11:18Z</time>
      </trkpt>
      <trkpt lat="44.60356" lon="4.33513">
        <ele>455.8</ele>
        <time>2013-11-06T15:11:22Z</time>
      </trkpt>
      <trkpt lat="44.60353" lon="4.33514">
        <ele>455.8</ele>
        <time>2013-11-06T15:11:25Z</time>
      </trkpt>
      <trkpt lat="44.60346" lon="4.33513">
        <ele>455.8</ele>
        <time>2013-11-06T15:11:33Z</time>
      </trkpt>
      <trkpt lat="44.6034" lon="4.33524">
        <ele>455.8</ele>
        <time>2013-11-06T15:11:41Z</time>
      </trkpt>
      <trkpt lat="44.60338" lon="4.33527">
        <ele>455.8</ele>
        <time>2013-11-06T15:11:56Z</time>
      </trkpt>
      <trkpt lat="44.60338" lon="4.33527">
        <ele>455.8</ele>
        <time>2013-11-06T15:12:14Z</time>
      </trkpt>
      <trkpt lat="44.60338" lon="4.33527">
        <ele>455.8</ele>
        <time>2013-11-06T15:12:42Z</time>
      </trkpt>
      <trkpt lat="44.60338" lon="4.33527">
        <ele>455.8</ele>
        <time>2013-11-06T15:13:08Z</time>
      </trkpt>
      <trkpt lat="44.60338" lon="4.33527">
        <ele>456.76</ele>
        <time>2013-11-06T15:13:32Z</time>
      </trkpt>
      <trkpt lat="44.60338" lon="4.33527">
        <ele>456.28</ele>
        <time>2013-11-06T15:13:53Z</time>
      </trkpt>
      <trkpt lat="44.60338" lon="4.33527">
        <ele>456.28</ele>
        <time>2013-11-06T15:14:13Z</time>
      </trkpt>
      <trkpt lat="44.60338" lon="4.33527">
        <ele>456.76</ele>
        <time>2013-11-06T15:14:16Z</time>
      </trkpt>
      <trkpt lat="44.60311" lon="4.33533">
        <ele>457.24</ele>
        <time>2013-11-06T15:14:30Z</time>
      </trkpt>
      <trkpt lat="44.60279" lon="4.33538">
        <ele>457.72</ele>
        <time>2013-11-06T15:14:43Z</time>
      </trkpt>
      <trkpt lat="44.60242" lon="4.33548">
        <ele>458.21</ele>
        <time>2013-11-06T15:14:55Z</time>
      </trkpt>
      <trkpt lat="44.60202" lon="4.33555">
        <ele>460.13</ele>
        <time>2013-11-06T15:15:10Z</time>
      </trkpt>
      <trkpt lat="44.60159" lon="4.33565">
        <ele>462.05</ele>
        <time>2013-11-06T15:15:24Z</time>
      </trkpt>
      <trkpt lat="44.60129" lon="4.33581">
        <ele>463.01</ele>
        <time>2013-11-06T15:15:36Z</time>
      </trkpt>
      <trkpt lat="44.60115" lon="4.33591">
        <ele>463.49</ele>
        <time>2013-11-06T15:15:50Z</time>
      </trkpt>
      <trkpt lat="44.60108" lon="4.33595">
        <ele>463.97</ele>
        <time>2013-11-06T15:16:03Z</time>
      </trkpt>
      <trkpt lat="44.60108" lon="4.33595">
        <ele>463.97</ele>
        <time>2013-11-06T15:16:17Z</time>
      </trkpt>
      <trkpt lat="44.601" lon="4.33614">
        <ele>460.13</ele>
        <time>2013-11-06T15:16:25Z</time>
      </trkpt>
      <trkpt lat="44.60092" lon="4.33626">
        <ele>457.24</ele>
        <time>2013-11-06T15:16:30Z</time>
      </trkpt>
      <trkpt lat="44.60087" lon="4.33656">
        <ele>454.36</ele>
        <time>2013-11-06T15:16:42Z</time>
      </trkpt>
      <trkpt lat="44.60087" lon="4.3366">
        <ele>454.36</ele>
        <time>2013-11-06T15:17:01Z</time>
      </trkpt>
      <trkpt lat="44.60087" lon="4.3366">
        <ele>454.36</ele>
        <time>2013-11-06T15:17:31Z</time>
      </trkpt>
      <trkpt lat="44.60087" lon="4.3366">
        <ele>453.88</ele>
        <time>2013-11-06T15:17:43Z</time>
      </trkpt>
      <trkpt lat="44.60084" lon="4.33661">
        <ele>453.88</ele>
        <time>2013-11-06T15:17:47Z</time>
      </trkpt>
      <trkpt lat="44.60082" lon="4.3366">
        <ele>453.88</ele>
        <time>2013-11-06T15:18:02Z</time>
      </trkpt>
      <trkpt lat="44.60082" lon="4.3366">
        <ele>453.88</ele>
        <time>2013-11-06T15:18:05Z</time>
      </trkpt>
      <trkpt lat="44.60085" lon="4.33665">
        <ele>454.36</ele>
        <time>2013-11-06T15:18:09Z</time>
      </trkpt>
      <trkpt lat="44.60089" lon="4.33666">
        <ele>454.84</ele>
        <time>2013-11-06T15:18:15Z</time>
      </trkpt>
      <trkpt lat="44.60086" lon="4.33659">
        <ele>455.32</ele>
        <time>2013-11-06T15:18:19Z</time>
      </trkpt>
      <trkpt lat="44.60086" lon="4.33652">
        <ele>455.32</ele>
        <time>2013-11-06T15:18:22Z</time>
      </trkpt>
      <trkpt lat="44.60088" lon="4.33667">
        <ele>454.36</ele>
        <time>2013-11-06T15:18:29Z</time>
      </trkpt>
      <trkpt lat="44.60084" lon="4.3367">
        <ele>453.88</ele>
        <time>2013-11-06T15:18:42Z</time>
      </trkpt>
      <trkpt lat="44.60084" lon="4.3367">
        <ele>454.36</ele>
        <time>2013-11-06T15:19:02Z</time>
      </trkpt>
      <trkpt lat="44.60083" lon="4.33669">
        <ele>454.36</ele>
        <time>2013-11-06T15:19:07Z</time>
      </trkpt>
      <trkpt lat="44.60077" lon="4.33666">
        <ele>454.36</ele>
        <time>2013-11-06T15:19:11Z</time>
      </trkpt>
      <trkpt lat="44.60038" lon="4.33661">
        <ele>455.32</ele>
        <time>2013-11-06T15:19:27Z</time>
      </trkpt>
      <trkpt lat="44.59992" lon="4.33666">
        <ele>456.28</ele>
        <time>2013-11-06T15:19:42Z</time>
      </trkpt>
      <trkpt lat="44.59953" lon="4.33688">
        <ele>457.24</ele>
        <time>2013-11-06T15:19:54Z</time>
      </trkpt>
      <trkpt lat="44.59935" lon="4.33708">
        <ele>454.36</ele>
        <time>2013-11-06T15:20:02Z</time>
      </trkpt>
      <trkpt lat="44.59924" lon="4.33719">
        <ele>451.96</ele>
        <time>2013-11-06T15:20:06Z</time>
      </trkpt>
      <trkpt lat="44.59922" lon="4.3372">
        <ele>451.48</ele>
        <time>2013-11-06T15:20:07Z</time>
      </trkpt>
      <trkpt lat="44.5992" lon="4.33719">
        <ele>451</ele>
        <time>2013-11-06T15:20:08Z</time>
      </trkpt>
      <trkpt lat="44.59899" lon="4.33719">
        <ele>449.07</ele>
        <time>2013-11-06T15:20:16Z</time>
      </trkpt>
      <trkpt lat="44.59897" lon="4.3372">
        <ele>449.07</ele>
        <time>2013-11-06T15:20:17Z</time>
      </trkpt>
      <trkpt lat="44.59896" lon="4.33722">
        <ele>449.07</ele>
        <time>2013-11-06T15:20:18Z</time>
      </trkpt>
      <trkpt lat="44.59896" lon="4.33724">
        <ele>448.59</ele>
        <time>2013-11-06T15:20:19Z</time>
      </trkpt>
      <trkpt lat="44.59896" lon="4.33727">
        <ele>448.59</ele>
        <time>2013-11-06T15:20:20Z</time>
      </trkpt>
      <trkpt lat="44.59895" lon="4.33729">
        <ele>448.11</ele>
        <time>2013-11-06T15:20:21Z</time>
      </trkpt>
      <trkpt lat="44.59896" lon="4.33732">
        <ele>448.11</ele>
        <time>2013-11-06T15:20:22Z</time>
      </trkpt>
      <trkpt lat="44.59896" lon="4.33735">
        <ele>447.63</ele>
        <time>2013-11-06T15:20:23Z</time>
      </trkpt>
      <trkpt lat="44.59897" lon="4.3374">
        <ele>447.15</ele>
        <time>2013-11-06T15:20:25Z</time>
      </trkpt>
      <trkpt lat="44.59897" lon="4.33745">
        <ele>446.67</ele>
        <time>2013-11-06T15:20:26Z</time>
      </trkpt>
      <trkpt lat="44.59898" lon="4.33779">
        <ele>445.71</ele>
        <time>2013-11-06T15:20:33Z</time>
      </trkpt>
      <trkpt lat="44.59898" lon="4.33782">
        <ele>445.71</ele>
        <time>2013-11-06T15:20:34Z</time>
      </trkpt>
      <trkpt lat="44.59898" lon="4.33786">
        <ele>445.23</ele>
        <time>2013-11-06T15:20:35Z</time>
      </trkpt>
      <trkpt lat="44.59897" lon="4.33791">
        <ele>445.23</ele>
        <time>2013-11-06T15:20:36Z</time>
      </trkpt>
      <trkpt lat="44.59897" lon="4.33794">
        <ele>445.23</ele>
        <time>2013-11-06T15:20:37Z</time>
      </trkpt>
      <trkpt lat="44.59897" lon="4.33797">
        <ele>444.27</ele>
        <time>2013-11-06T15:20:38Z</time>
      </trkpt>
      <trkpt lat="44.59896" lon="4.33801">
        <ele>443.79</ele>
        <time>2013-11-06T15:20:39Z</time>
      </trkpt>
      <trkpt lat="44.59895" lon="4.33804">
        <ele>443.31</ele>
        <time>2013-11-06T15:20:40Z</time>
      </trkpt>
      <trkpt lat="44.59895" lon="4.33808">
        <ele>442.82</ele>
        <time>2013-11-06T15:20:41Z</time>
      </trkpt>
      <trkpt lat="44.59894" lon="4.33812">
        <ele>442.82</ele>
        <time>2013-11-06T15:20:42Z</time>
      </trkpt>
      <trkpt lat="44.59892" lon="4.33815">
        <ele>442.82</ele>
        <time>2013-11-06T15:20:43Z</time>
      </trkpt>
      <trkpt lat="44.59888" lon="4.33818">
        <ele>442.82</ele>
        <time>2013-11-06T15:20:45Z</time>
      </trkpt>
      <trkpt lat="44.59881" lon="4.33823">
        <ele>443.31</ele>
        <time>2013-11-06T15:20:47Z</time>
      </trkpt>
      <trkpt lat="44.59868" lon="4.33828">
        <ele>442.34</ele>
        <time>2013-11-06T15:20:50Z</time>
      </trkpt>
      <trkpt lat="44.59854" lon="4.33832">
        <ele>440.9</ele>
        <time>2013-11-06T15:20:53Z</time>
      </trkpt>
      <trkpt lat="44.59845" lon="4.33835">
        <ele>439.94</ele>
        <time>2013-11-06T15:20:55Z</time>
      </trkpt>
      <trkpt lat="44.59841" lon="4.33836">
        <ele>439.94</ele>
        <time>2013-11-06T15:20:56Z</time>
      </trkpt>
      <trkpt lat="44.59837" lon="4.33837">
        <ele>439.46</ele>
        <time>2013-11-06T15:20:57Z</time>
      </trkpt>
      <trkpt lat="44.59832" lon="4.33837">
        <ele>438.98</ele>
        <time>2013-11-06T15:20:58Z</time>
      </trkpt>
      <trkpt lat="44.59828" lon="4.33837">
        <ele>438.98</ele>
        <time>2013-11-06T15:20:59Z</time>
      </trkpt>
      <trkpt lat="44.59812" lon="4.33833">
        <ele>437.06</ele>
        <time>2013-11-06T15:21:03Z</time>
      </trkpt>
      <trkpt lat="44.59761" lon="4.33835">
        <ele>435.13</ele>
        <time>2013-11-06T15:21:16Z</time>
      </trkpt>
      <trkpt lat="44.59757" lon="4.33836">
        <ele>435.61</ele>
        <time>2013-11-06T15:21:25Z</time>
      </trkpt>
      <trkpt lat="44.59753" lon="4.33834">
        <ele>435.61</ele>
        <time>2013-11-06T15:21:42Z</time>
      </trkpt>
      <trkpt lat="44.59753" lon="4.33834">
        <ele>435.61</ele>
        <time>2013-11-06T15:22:02Z</time>
      </trkpt>
      <trkpt lat="44.59751" lon="4.33846">
        <ele>437.06</ele>
        <time>2013-11-06T15:22:18Z</time>
      </trkpt>
      <trkpt lat="44.59759" lon="4.33866">
        <ele>439.94</ele>
        <time>2013-11-06T15:22:32Z</time>
      </trkpt>
      <trkpt lat="44.59767" lon="4.33888">
        <ele>440.9</ele>
        <time>2013-11-06T15:22:41Z</time>
      </trkpt>
      <trkpt lat="44.59783" lon="4.33907">
        <ele>442.34</ele>
        <time>2013-11-06T15:22:53Z</time>
      </trkpt>
      <trkpt lat="44.59795" lon="4.33936">
        <ele>443.31</ele>
        <time>2013-11-06T15:23:09Z</time>
      </trkpt>
      <trkpt lat="44.59797" lon="4.33939">
        <ele>443.79</ele>
        <time>2013-11-06T15:23:12Z</time>
      </trkpt>
      <trkpt lat="44.59798" lon="4.33941">
        <ele>443.79</ele>
        <time>2013-11-06T15:23:13Z</time>
      </trkpt>
      <trkpt lat="44.59806" lon="4.33964">
        <ele>444.27</ele>
        <time>2013-11-06T15:23:27Z</time>
      </trkpt>
      <trkpt lat="44.59805" lon="4.33975">
        <ele>444.27</ele>
        <time>2013-11-06T15:23:41Z</time>
      </trkpt>
      <trkpt lat="44.59805" lon="4.33976">
        <ele>444.75</ele>
        <time>2013-11-06T15:24:05Z</time>
      </trkpt>
      <trkpt lat="44.59804" lon="4.33979">
        <ele>444.75</ele>
        <time>2013-11-06T15:24:10Z</time>
      </trkpt>
      <trkpt lat="44.59804" lon="4.33982">
        <ele>444.75</ele>
        <time>2013-11-06T15:24:11Z</time>
      </trkpt>
      <trkpt lat="44.59792" lon="4.33998">
        <ele>447.15</ele>
        <time>2013-11-06T15:24:22Z</time>
      </trkpt>
      <trkpt lat="44.59792" lon="4.34008">
        <ele>448.11</ele>
        <time>2013-11-06T15:24:26Z</time>
      </trkpt>
      <trkpt lat="44.59785" lon="4.34015">
        <ele>449.07</ele>
        <time>2013-11-06T15:24:31Z</time>
      </trkpt>
      <trkpt lat="44.59778" lon="4.34024">
        <ele>450.52</ele>
        <time>2013-11-06T15:24:38Z</time>
      </trkpt>
      <trkpt lat="44.59766" lon="4.34053">
        <ele>452.92</ele>
        <time>2013-11-06T15:24:51Z</time>
      </trkpt>
      <trkpt lat="44.59759" lon="4.34083">
        <ele>455.32</ele>
        <time>2013-11-06T15:25:05Z</time>
      </trkpt>
      <trkpt lat="44.59763" lon="4.34105">
        <ele>457.24</ele>
        <time>2013-11-06T15:25:16Z</time>
      </trkpt>
      <trkpt lat="44.59765" lon="4.34112">
        <ele>457.72</ele>
        <time>2013-11-06T15:25:20Z</time>
      </trkpt>
      <trkpt lat="44.59778" lon="4.34139">
        <ele>460.61</ele>
        <time>2013-11-06T15:25:33Z</time>
      </trkpt>
      <trkpt lat="44.59784" lon="4.34153">
        <ele>462.53</ele>
        <time>2013-11-06T15:25:40Z</time>
      </trkpt>
      <trkpt lat="44.59783" lon="4.34176">
        <ele>463.97</ele>
        <time>2013-11-06T15:25:53Z</time>
      </trkpt>
      <trkpt lat="44.59782" lon="4.34184">
        <ele>463.97</ele>
        <time>2013-11-06T15:25:58Z</time>
      </trkpt>
      <trkpt lat="44.59796" lon="4.34195">
        <ele>463.97</ele>
        <time>2013-11-06T15:26:09Z</time>
      </trkpt>
      <trkpt lat="44.59798" lon="4.34194">
        <ele>463.49</ele>
        <time>2013-11-06T15:26:13Z</time>
      </trkpt>
      <trkpt lat="44.59803" lon="4.34194">
        <ele>463.49</ele>
        <time>2013-11-06T15:26:17Z</time>
      </trkpt>
      <trkpt lat="44.59803" lon="4.34186">
        <ele>463.49</ele>
        <time>2013-11-06T15:26:33Z</time>
      </trkpt>
      <trkpt lat="44.59803" lon="4.34186">
        <ele>463.01</ele>
        <time>2013-11-06T15:27:03Z</time>
      </trkpt>
      <trkpt lat="44.59803" lon="4.34186">
        <ele>463.01</ele>
        <time>2013-11-06T15:27:33Z</time>
      </trkpt>
      <trkpt lat="44.59803" lon="4.34185">
        <ele>463.01</ele>
        <time>2013-11-06T15:27:55Z</time>
      </trkpt>
      <trkpt lat="44.59795" lon="4.34177">
        <ele>463.01</ele>
        <time>2013-11-06T15:28:06Z</time>
      </trkpt>
      <trkpt lat="44.5979" lon="4.34173">
        <ele>463.49</ele>
        <time>2013-11-06T15:28:10Z</time>
      </trkpt>
      <trkpt lat="44.59782" lon="4.34162">
        <ele>464.45</ele>
        <time>2013-11-06T15:28:18Z</time>
      </trkpt>
      <trkpt lat="44.59752" lon="4.34133">
        <ele>465.9</ele>
        <time>2013-11-06T15:28:32Z</time>
      </trkpt>
      <trkpt lat="44.59718" lon="4.34108">
        <ele>465.9</ele>
        <time>2013-11-06T15:28:42Z</time>
      </trkpt>
      <trkpt lat="44.59681" lon="4.34075">
        <ele>466.38</ele>
        <time>2013-11-06T15:28:55Z</time>
      </trkpt>
      <trkpt lat="44.59648" lon="4.34032">
        <ele>467.82</ele>
        <time>2013-11-06T15:29:09Z</time>
      </trkpt>
      <trkpt lat="44.59631" lon="4.33992">
        <ele>468.78</ele>
        <time>2013-11-06T15:29:19Z</time>
      </trkpt>
      <trkpt lat="44.59609" lon="4.33922">
        <ele>470.22</ele>
        <time>2013-11-06T15:29:35Z</time>
      </trkpt>
      <trkpt lat="44.59587" lon="4.33872">
        <ele>471.66</ele>
        <time>2013-11-06T15:29:47Z</time>
      </trkpt>
      <trkpt lat="44.59562" lon="4.3384">
        <ele>472.14</ele>
        <time>2013-11-06T15:29:57Z</time>
      </trkpt>
      <trkpt lat="44.5954" lon="4.33852">
        <ele>475.03</ele>
        <time>2013-11-06T15:30:05Z</time>
      </trkpt>
      <trkpt lat="44.59538" lon="4.33853">
        <ele>475.03</ele>
        <time>2013-11-06T15:30:06Z</time>
      </trkpt>
      <trkpt lat="44.59536" lon="4.33857">
        <ele>475.03</ele>
        <time>2013-11-06T15:30:08Z</time>
      </trkpt>
      <trkpt lat="44.59536" lon="4.3386">
        <ele>475.51</ele>
        <time>2013-11-06T15:30:09Z</time>
      </trkpt>
      <trkpt lat="44.59536" lon="4.33863">
        <ele>475.51</ele>
        <time>2013-11-06T15:30:10Z</time>
      </trkpt>
      <trkpt lat="44.59536" lon="4.33866">
        <ele>475.51</ele>
        <time>2013-11-06T15:30:11Z</time>
      </trkpt>
      <trkpt lat="44.59537" lon="4.33869">
        <ele>475.51</ele>
        <time>2013-11-06T15:30:12Z</time>
      </trkpt>
      <trkpt lat="44.59538" lon="4.33872">
        <ele>475.51</ele>
        <time>2013-11-06T15:30:13Z</time>
      </trkpt>
      <trkpt lat="44.59539" lon="4.33875">
        <ele>475.03</ele>
        <time>2013-11-06T15:30:14Z</time>
      </trkpt>
      <trkpt lat="44.59539" lon="4.33878">
        <ele>475.51</ele>
        <time>2013-11-06T15:30:15Z</time>
      </trkpt>
      <trkpt lat="44.5954" lon="4.3388">
        <ele>475.03</ele>
        <time>2013-11-06T15:30:16Z</time>
      </trkpt>
      <trkpt lat="44.59541" lon="4.33882">
        <ele>475.03</ele>
        <time>2013-11-06T15:30:17Z</time>
      </trkpt>
      <trkpt lat="44.59541" lon="4.33884">
        <ele>475.03</ele>
        <time>2013-11-06T15:30:18Z</time>
      </trkpt>
      <trkpt lat="44.59542" lon="4.33886">
        <ele>475.03</ele>
        <time>2013-11-06T15:30:19Z</time>
      </trkpt>
      <trkpt lat="44.59542" lon="4.33888">
        <ele>475.03</ele>
        <time>2013-11-06T15:30:20Z</time>
      </trkpt>
      <trkpt lat="44.59542" lon="4.3389">
        <ele>475.03</ele>
        <time>2013-11-06T15:30:21Z</time>
      </trkpt>
      <trkpt lat="44.59542" lon="4.33891">
        <ele>475.03</ele>
        <time>2013-11-06T15:30:22Z</time>
      </trkpt>
      <trkpt lat="44.59544" lon="4.33893">
        <ele>474.55</ele>
        <time>2013-11-06T15:30:35Z</time>
      </trkpt>
      <trkpt lat="44.59544" lon="4.33893">
        <ele>474.55</ele>
        <time>2013-11-06T15:30:46Z</time>
      </trkpt>
      <trkpt lat="44.59544" lon="4.33892">
        <ele>474.55</ele>
        <time>2013-11-06T15:31:02Z</time>
      </trkpt>
      <trkpt lat="44.59544" lon="4.33892">
        <ele>474.07</ele>
        <time>2013-11-06T15:31:22Z</time>
      </trkpt>
      <trkpt lat="44.59544" lon="4.33893">
        <ele>474.55</ele>
        <time>2013-11-06T15:31:44Z</time>
      </trkpt>
      <trkpt lat="44.59544" lon="4.33893">
        <ele>474.55</ele>
        <time>2013-11-06T15:32:06Z</time>
      </trkpt>
    </trkseg>
  </trk>
</gpx>